<?xml version="1.0" encoding="UTF-8"?>
<gpx xmlns="http://www.topografix.com/GPX/1/1" xmlns:xsi="http://www.w3.org/2001/XMLSchema-instance" version="1.1" xsi:schemaLocation="http://www.topografix.com/GPX/1/1 http://www.topografix.com/GPX/1/1/gpx.xsd">
  <metadata>
    <name>Austrian 1/2 Iron Triathlon - Swim Bike Short</name>
  </metadata>
  <trk>
    <name>Austrian 1/2 Iron Triathlon - Swim Bike Short</name>
    <trkseg>
      <trkpt lat="46.717641" lon="15.798761">
        <ele>231.142207</ele>
        <time>2024-05-11T09:55:00.000Z</time>
      </trkpt>
      <trkpt lat="46.717317" lon="15.79811">
        <ele>231.14222</ele>
        <time>2024-05-11T09:55:06.000Z</time>
      </trkpt>
      <trkpt lat="46.717104" lon="15.797644">
        <ele>231.147699</ele>
        <time>2024-05-11T09:55:10.000Z</time>
      </trkpt>
      <trkpt lat="46.716684" lon="15.796723">
        <ele>231.281649</ele>
        <time>2024-05-11T09:55:18.000Z</time>
      </trkpt>
      <trkpt lat="46.716493" lon="15.796343">
        <ele>231.340432</ele>
        <time>2024-05-11T09:55:22.000Z</time>
      </trkpt>
      <trkpt lat="46.716273" lon="15.795967">
        <ele>231.399689</ele>
        <time>2024-05-11T09:55:26.000Z</time>
      </trkpt>
      <trkpt lat="46.716281" lon="15.795885">
        <ele>231.409805</ele>
        <time>2024-05-11T09:55:27.000Z</time>
      </trkpt>
      <trkpt lat="46.716323" lon="15.795704">
        <ele>231.433288</ele>
        <time>2024-05-11T09:55:28.000Z</time>
      </trkpt>
      <trkpt lat="46.716359" lon="15.795344">
        <ele>231.453579</ele>
        <time>2024-05-11T09:55:31.000Z</time>
      </trkpt>
      <trkpt lat="46.716389" lon="15.795123">
        <ele>231.440926</ele>
        <time>2024-05-11T09:55:33.000Z</time>
      </trkpt>
      <trkpt lat="46.71639" lon="15.795031">
        <ele>231.43592</ele>
        <time>2024-05-11T09:55:34.000Z</time>
      </trkpt>
      <trkpt lat="46.716412" lon="15.794776">
        <ele>231.422294</ele>
        <time>2024-05-11T09:55:36.000Z</time>
      </trkpt>
      <trkpt lat="46.716405" lon="15.794702">
        <ele>231.418245</ele>
        <time>2024-05-11T09:55:37.000Z</time>
      </trkpt>
      <trkpt lat="46.716352" lon="15.794428">
        <ele>231.402832</ele>
        <time>2024-05-11T09:55:39.000Z</time>
      </trkpt>
      <trkpt lat="46.71636" lon="15.794253">
        <ele>231.39341</ele>
        <time>2024-05-11T09:55:40.000Z</time>
      </trkpt>
      <trkpt lat="46.716573" lon="15.794321">
        <ele>231.376361</ele>
        <time>2024-05-11T09:55:42.000Z</time>
      </trkpt>
      <trkpt lat="46.716953" lon="15.794423">
        <ele>231.34603</ele>
        <time>2024-05-11T09:55:46.000Z</time>
      </trkpt>
      <trkpt lat="46.716974" lon="15.794441">
        <ele>231.342883</ele>
        <time>2024-05-11T09:55:46.000Z</time>
      </trkpt>
      <trkpt lat="46.717037" lon="15.794447">
        <ele>231.337885</ele>
        <time>2024-05-11T09:55:47.000Z</time>
      </trkpt>
      <trkpt lat="46.717873" lon="15.79484">
        <ele>231.148791</ele>
        <time>2024-05-11T09:55:57.000Z</time>
      </trkpt>
      <trkpt lat="46.717942" lon="15.794865">
        <ele>231.129806</ele>
        <time>2024-05-11T09:55:58.000Z</time>
      </trkpt>
      <trkpt lat="46.718263" lon="15.795028">
        <ele>231.039453</ele>
        <time>2024-05-11T09:56:02.000Z</time>
      </trkpt>
      <trkpt lat="46.718525" lon="15.795093">
        <ele>230.968345</ele>
        <time>2024-05-11T09:56:05.000Z</time>
      </trkpt>
      <trkpt lat="46.718847" lon="15.795136">
        <ele>230.882077</ele>
        <time>2024-05-11T09:56:09.000Z</time>
      </trkpt>
      <trkpt lat="46.719187" lon="15.79514">
        <ele>230.836878</ele>
        <time>2024-05-11T09:56:13.000Z</time>
      </trkpt>
      <trkpt lat="46.719265" lon="15.795128">
        <ele>230.838138</ele>
        <time>2024-05-11T09:56:14.000Z</time>
      </trkpt>
      <trkpt lat="46.719546" lon="15.795114">
        <ele>230.842708</ele>
        <time>2024-05-11T09:56:17.000Z</time>
      </trkpt>
      <trkpt lat="46.720105" lon="15.795104">
        <ele>230.851746</ele>
        <time>2024-05-11T09:56:23.000Z</time>
      </trkpt>
      <trkpt lat="46.720563" lon="15.795181">
        <ele>230.859124</ele>
        <time>2024-05-11T09:56:28.000Z</time>
      </trkpt>
      <trkpt lat="46.720872" lon="15.795299">
        <ele>230.867933</ele>
        <time>2024-05-11T09:56:32.000Z</time>
      </trkpt>
      <trkpt lat="46.721038" lon="15.795359">
        <ele>230.879139</ele>
        <time>2024-05-11T09:56:34.000Z</time>
      </trkpt>
      <trkpt lat="46.721184" lon="15.79546">
        <ele>230.889588</ele>
        <time>2024-05-11T09:56:36.000Z</time>
      </trkpt>
      <trkpt lat="46.72179" lon="15.796093">
        <ele>230.939303</ele>
        <time>2024-05-11T09:56:44.000Z</time>
      </trkpt>
      <trkpt lat="46.721961" lon="15.796177">
        <ele>230.952235</ele>
        <time>2024-05-11T09:56:46.000Z</time>
      </trkpt>
      <trkpt lat="46.722569" lon="15.796335">
        <ele>231.012623</ele>
        <time>2024-05-11T09:56:53.000Z</time>
      </trkpt>
      <trkpt lat="46.722859" lon="15.796462">
        <ele>231.069204</ele>
        <time>2024-05-11T09:56:56.000Z</time>
      </trkpt>
      <trkpt lat="46.722976" lon="15.796547">
        <ele>231.097308</ele>
        <time>2024-05-11T09:56:57.000Z</time>
      </trkpt>
      <trkpt lat="46.723139" lon="15.796698">
        <ele>231.133759</ele>
        <time>2024-05-11T09:56:59.000Z</time>
      </trkpt>
      <trkpt lat="46.723491" lon="15.797115">
        <ele>231.222975</ele>
        <time>2024-05-11T09:57:04.000Z</time>
      </trkpt>
      <trkpt lat="46.723887" lon="15.797561">
        <ele>231.321077</ele>
        <time>2024-05-11T09:57:10.000Z</time>
      </trkpt>
      <trkpt lat="46.724069" lon="15.797776">
        <ele>231.37143</ele>
        <time>2024-05-11T09:57:13.000Z</time>
      </trkpt>
      <trkpt lat="46.724304" lon="15.798047">
        <ele>231.438891</ele>
        <time>2024-05-11T09:57:16.000Z</time>
      </trkpt>
      <trkpt lat="46.724427" lon="15.798186">
        <ele>231.472362</ele>
        <time>2024-05-11T09:57:18.000Z</time>
      </trkpt>
      <trkpt lat="46.724513" lon="15.798275">
        <ele>231.496297</ele>
        <time>2024-05-11T09:57:19.000Z</time>
      </trkpt>
      <trkpt lat="46.724559" lon="15.798325">
        <ele>231.509888</ele>
        <time>2024-05-11T09:57:20.000Z</time>
      </trkpt>
      <trkpt lat="46.724634" lon="15.798424">
        <ele>231.53365</ele>
        <time>2024-05-11T09:57:21.000Z</time>
      </trkpt>
      <trkpt lat="46.724808" lon="15.79864">
        <ele>231.5838</ele>
        <time>2024-05-11T09:57:24.000Z</time>
      </trkpt>
      <trkpt lat="46.725025" lon="15.798933">
        <ele>231.650794</ele>
        <time>2024-05-11T09:57:27.000Z</time>
      </trkpt>
      <trkpt lat="46.72521" lon="15.799235">
        <ele>231.713544</ele>
        <time>2024-05-11T09:57:30.000Z</time>
      </trkpt>
      <trkpt lat="46.72524" lon="15.799288">
        <ele>231.722366</ele>
        <time>2024-05-11T09:57:31.000Z</time>
      </trkpt>
      <trkpt lat="46.72539" lon="15.79955">
        <ele>231.755745</ele>
        <time>2024-05-11T09:57:34.000Z</time>
      </trkpt>
      <trkpt lat="46.725419" lon="15.79963">
        <ele>231.761662</ele>
        <time>2024-05-11T09:57:35.000Z</time>
      </trkpt>
      <trkpt lat="46.725761" lon="15.799389">
        <ele>231.79948</ele>
        <time>2024-05-11T09:57:39.000Z</time>
      </trkpt>
      <trkpt lat="46.726247" lon="15.799366">
        <ele>231.849903</ele>
        <time>2024-05-11T09:57:44.000Z</time>
      </trkpt>
      <trkpt lat="46.726692" lon="15.799376">
        <ele>231.893308</ele>
        <time>2024-05-11T09:57:49.000Z</time>
      </trkpt>
      <trkpt lat="46.726831" lon="15.799399">
        <ele>231.909241</ele>
        <time>2024-05-11T09:57:51.000Z</time>
      </trkpt>
      <trkpt lat="46.727032" lon="15.798795">
        <ele>231.923551</ele>
        <time>2024-05-11T09:57:56.000Z</time>
      </trkpt>
      <trkpt lat="46.727082" lon="15.798463">
        <ele>231.925369</ele>
        <time>2024-05-11T09:57:59.000Z</time>
      </trkpt>
      <trkpt lat="46.727057" lon="15.798016">
        <ele>231.927804</ele>
        <time>2024-05-11T09:58:02.000Z</time>
      </trkpt>
      <trkpt lat="46.727043" lon="15.797213">
        <ele>231.932007</ele>
        <time>2024-05-11T09:58:08.000Z</time>
      </trkpt>
      <trkpt lat="46.72704" lon="15.796441">
        <ele>231.962984</ele>
        <time>2024-05-11T09:58:14.000Z</time>
      </trkpt>
      <trkpt lat="46.727127" lon="15.796088">
        <ele>232.004136</ele>
        <time>2024-05-11T09:58:17.000Z</time>
      </trkpt>
      <trkpt lat="46.727219" lon="15.795786">
        <ele>232.044304</ele>
        <time>2024-05-11T09:58:20.000Z</time>
      </trkpt>
      <trkpt lat="46.727268" lon="15.795666">
        <ele>232.060352</ele>
        <time>2024-05-11T09:58:21.000Z</time>
      </trkpt>
      <trkpt lat="46.727361" lon="15.795386">
        <ele>232.097326</ele>
        <time>2024-05-11T09:58:23.000Z</time>
      </trkpt>
      <trkpt lat="46.727463" lon="15.795089">
        <ele>232.135182</ele>
        <time>2024-05-11T09:58:26.000Z</time>
      </trkpt>
      <trkpt lat="46.727685" lon="15.794466">
        <ele>232.215628</ele>
        <time>2024-05-11T09:58:31.000Z</time>
      </trkpt>
      <trkpt lat="46.727739" lon="15.794306">
        <ele>232.236915</ele>
        <time>2024-05-11T09:58:32.000Z</time>
      </trkpt>
      <trkpt lat="46.727826" lon="15.794004">
        <ele>232.341134</ele>
        <time>2024-05-11T09:58:34.000Z</time>
      </trkpt>
      <trkpt lat="46.727846" lon="15.793887">
        <ele>232.387981</ele>
        <time>2024-05-11T09:58:35.000Z</time>
      </trkpt>
      <trkpt lat="46.727869" lon="15.793793">
        <ele>232.420384</ele>
        <time>2024-05-11T09:58:36.000Z</time>
      </trkpt>
      <trkpt lat="46.727962" lon="15.793522">
        <ele>232.528627</ele>
        <time>2024-05-11T09:58:38.000Z</time>
      </trkpt>
      <trkpt lat="46.727998" lon="15.793424">
        <ele>232.565968</ele>
        <time>2024-05-11T09:58:39.000Z</time>
      </trkpt>
      <trkpt lat="46.728076" lon="15.793181">
        <ele>232.65767</ele>
        <time>2024-05-11T09:58:41.000Z</time>
      </trkpt>
      <trkpt lat="46.728201" lon="15.792933">
        <ele>232.763286</ele>
        <time>2024-05-11T09:58:43.000Z</time>
      </trkpt>
      <trkpt lat="46.728337" lon="15.79257">
        <ele>232.904253</ele>
        <time>2024-05-11T09:58:46.000Z</time>
      </trkpt>
      <trkpt lat="46.728454" lon="15.792288">
        <ele>233.015706</ele>
        <time>2024-05-11T09:58:49.000Z</time>
      </trkpt>
      <trkpt lat="46.728589" lon="15.791841">
        <ele>233.1781</ele>
        <time>2024-05-11T09:58:53.000Z</time>
      </trkpt>
      <trkpt lat="46.728611" lon="15.791731">
        <ele>233.211282</ele>
        <time>2024-05-11T09:58:54.000Z</time>
      </trkpt>
      <trkpt lat="46.728688" lon="15.791492">
        <ele>233.28526</ele>
        <time>2024-05-11T09:58:56.000Z</time>
      </trkpt>
      <trkpt lat="46.728773" lon="15.791168">
        <ele>233.385176</ele>
        <time>2024-05-11T09:58:59.000Z</time>
      </trkpt>
      <trkpt lat="46.728877" lon="15.790919">
        <ele>233.467707</ele>
        <time>2024-05-11T09:59:01.000Z</time>
      </trkpt>
      <trkpt lat="46.729074" lon="15.790376">
        <ele>233.642443</ele>
        <time>2024-05-11T09:59:06.000Z</time>
      </trkpt>
      <trkpt lat="46.729103" lon="15.790334">
        <ele>233.65525</ele>
        <time>2024-05-11T09:59:06.000Z</time>
      </trkpt>
      <trkpt lat="46.729195" lon="15.79017">
        <ele>233.715565</ele>
        <time>2024-05-11T09:59:08.000Z</time>
      </trkpt>
      <trkpt lat="46.72927" lon="15.790143">
        <ele>233.743704</ele>
        <time>2024-05-11T09:59:09.000Z</time>
      </trkpt>
      <trkpt lat="46.729354" lon="15.790185">
        <ele>233.782583</ele>
        <time>2024-05-11T09:59:10.000Z</time>
      </trkpt>
      <trkpt lat="46.729756" lon="15.790464">
        <ele>233.922931</ele>
        <time>2024-05-11T09:59:15.000Z</time>
      </trkpt>
      <trkpt lat="46.73025" lon="15.790821">
        <ele>234.024239</ele>
        <time>2024-05-11T09:59:21.000Z</time>
      </trkpt>
      <trkpt lat="46.730497" lon="15.790873">
        <ele>234.070248</ele>
        <time>2024-05-11T09:59:24.000Z</time>
      </trkpt>
      <trkpt lat="46.730647" lon="15.790846">
        <ele>234.096037</ele>
        <time>2024-05-11T09:59:26.000Z</time>
      </trkpt>
      <trkpt lat="46.730773" lon="15.790767">
        <ele>234.122079</ele>
        <time>2024-05-11T09:59:28.000Z</time>
      </trkpt>
      <trkpt lat="46.73119" lon="15.790553">
        <ele>234.201499</ele>
        <time>2024-05-11T09:59:33.000Z</time>
      </trkpt>
      <trkpt lat="46.731451" lon="15.790347">
        <ele>234.263115</ele>
        <time>2024-05-11T09:59:36.000Z</time>
      </trkpt>
      <trkpt lat="46.732341" lon="15.78933">
        <ele>234.511937</ele>
        <time>2024-05-11T09:59:49.000Z</time>
      </trkpt>
      <trkpt lat="46.734208" lon="15.787041">
        <ele>235.14562</ele>
        <time>2024-05-11T10:00:16.000Z</time>
      </trkpt>
      <trkpt lat="46.735269" lon="15.785797">
        <ele>235.679307</ele>
        <time>2024-05-11T10:00:31.000Z</time>
      </trkpt>
      <trkpt lat="46.73604" lon="15.784886">
        <ele>236.191962</ele>
        <time>2024-05-11T10:00:42.000Z</time>
      </trkpt>
      <trkpt lat="46.737945" lon="15.782807">
        <ele>237.370764</ele>
        <time>2024-05-11T10:01:08.000Z</time>
      </trkpt>
      <trkpt lat="46.738775" lon="15.781879">
        <ele>237.997742</ele>
        <time>2024-05-11T10:01:20.000Z</time>
      </trkpt>
      <trkpt lat="46.739147" lon="15.781476">
        <ele>238.32621</ele>
        <time>2024-05-11T10:01:25.000Z</time>
      </trkpt>
      <trkpt lat="46.739738" lon="15.780834">
        <ele>238.854546</ele>
        <time>2024-05-11T10:01:33.000Z</time>
      </trkpt>
      <trkpt lat="46.739963" lon="15.780472">
        <ele>239.171727</ele>
        <time>2024-05-11T10:01:37.000Z</time>
      </trkpt>
      <trkpt lat="46.739974" lon="15.780369">
        <ele>239.240541</ele>
        <time>2024-05-11T10:01:38.000Z</time>
      </trkpt>
      <trkpt lat="46.740239" lon="15.78022">
        <ele>239.519607</ele>
        <time>2024-05-11T10:01:41.000Z</time>
      </trkpt>
      <trkpt lat="46.741104" lon="15.779616">
        <ele>240.451493</ele>
        <time>2024-05-11T10:01:52.000Z</time>
      </trkpt>
      <trkpt lat="46.74148" lon="15.779367">
        <ele>240.700009</ele>
        <time>2024-05-11T10:01:57.000Z</time>
      </trkpt>
      <trkpt lat="46.744463" lon="15.778066">
        <ele>241.500366</ele>
        <time>2024-05-11T10:02:32.000Z</time>
      </trkpt>
      <trkpt lat="46.744966" lon="15.777847">
        <ele>241.731358</ele>
        <time>2024-05-11T10:02:38.000Z</time>
      </trkpt>
      <trkpt lat="46.74526" lon="15.777734">
        <ele>241.931847</ele>
        <time>2024-05-11T10:02:41.000Z</time>
      </trkpt>
      <trkpt lat="46.746008" lon="15.777403">
        <ele>242.451677</ele>
        <time>2024-05-11T10:02:50.000Z</time>
      </trkpt>
      <trkpt lat="46.746739" lon="15.777095">
        <ele>242.983823</ele>
        <time>2024-05-11T10:02:58.000Z</time>
      </trkpt>
      <trkpt lat="46.747272" lon="15.776934">
        <ele>243.383781</ele>
        <time>2024-05-11T10:03:04.000Z</time>
      </trkpt>
      <trkpt lat="46.747691" lon="15.776836">
        <ele>243.691869</ele>
        <time>2024-05-11T10:03:09.000Z</time>
      </trkpt>
      <trkpt lat="46.748526" lon="15.776796">
        <ele>244.40331</ele>
        <time>2024-05-11T10:03:18.000Z</time>
      </trkpt>
      <trkpt lat="46.749042" lon="15.776871">
        <ele>244.937854</ele>
        <time>2024-05-11T10:03:24.000Z</time>
      </trkpt>
      <trkpt lat="46.749658" lon="15.777058">
        <ele>245.565428</ele>
        <time>2024-05-11T10:03:31.000Z</time>
      </trkpt>
      <trkpt lat="46.74978" lon="15.777073">
        <ele>245.693125</ele>
        <time>2024-05-11T10:03:32.000Z</time>
      </trkpt>
      <trkpt lat="46.750117" lon="15.777153">
        <ele>246.04627</ele>
        <time>2024-05-11T10:03:36.000Z</time>
      </trkpt>
      <trkpt lat="46.750505" lon="15.77715">
        <ele>246.479091</ele>
        <time>2024-05-11T10:03:40.000Z</time>
      </trkpt>
      <trkpt lat="46.750717" lon="15.777133">
        <ele>246.728177</ele>
        <time>2024-05-11T10:03:42.000Z</time>
      </trkpt>
      <trkpt lat="46.751053" lon="15.777029">
        <ele>247.098444</ele>
        <time>2024-05-11T10:03:46.000Z</time>
      </trkpt>
      <trkpt lat="46.752089" lon="15.776566">
        <ele>248.176598</ele>
        <time>2024-05-11T10:03:58.000Z</time>
      </trkpt>
      <trkpt lat="46.752548" lon="15.776387">
        <ele>248.532695</ele>
        <time>2024-05-11T10:04:03.000Z</time>
      </trkpt>
      <trkpt lat="46.753128" lon="15.776213">
        <ele>248.988954</ele>
        <time>2024-05-11T10:04:10.000Z</time>
      </trkpt>
      <trkpt lat="46.753569" lon="15.776062">
        <ele>249.256856</ele>
        <time>2024-05-11T10:04:15.000Z</time>
      </trkpt>
      <trkpt lat="46.753594" lon="15.776048">
        <ele>249.254438</ele>
        <time>2024-05-11T10:04:15.000Z</time>
      </trkpt>
      <trkpt lat="46.754082" lon="15.775756">
        <ele>249.196756</ele>
        <time>2024-05-11T10:04:21.000Z</time>
      </trkpt>
      <trkpt lat="46.754457" lon="15.775483">
        <ele>249.150286</ele>
        <time>2024-05-11T10:04:26.000Z</time>
      </trkpt>
      <trkpt lat="46.7564" lon="15.773482">
        <ele>247.792245</ele>
        <time>2024-05-11T10:04:52.000Z</time>
      </trkpt>
      <trkpt lat="46.757083" lon="15.772809">
        <ele>247.021671</ele>
        <time>2024-05-11T10:05:01.000Z</time>
      </trkpt>
      <trkpt lat="46.75727" lon="15.772598">
        <ele>246.782406</ele>
        <time>2024-05-11T10:05:04.000Z</time>
      </trkpt>
      <trkpt lat="46.757588" lon="15.772244">
        <ele>246.383266</ele>
        <time>2024-05-11T10:05:08.000Z</time>
      </trkpt>
      <trkpt lat="46.757662" lon="15.772166">
        <ele>246.301102</ele>
        <time>2024-05-11T10:05:09.000Z</time>
      </trkpt>
      <trkpt lat="46.757915" lon="15.771895">
        <ele>245.987814</ele>
        <time>2024-05-11T10:05:12.000Z</time>
      </trkpt>
      <trkpt lat="46.758731" lon="15.771088">
        <ele>245.488664</ele>
        <time>2024-05-11T10:05:23.000Z</time>
      </trkpt>
      <trkpt lat="46.759195" lon="15.770649">
        <ele>245.231197</ele>
        <time>2024-05-11T10:05:29.000Z</time>
      </trkpt>
      <trkpt lat="46.759602" lon="15.770344">
        <ele>245.100979</ele>
        <time>2024-05-11T10:05:34.000Z</time>
      </trkpt>
      <trkpt lat="46.760354" lon="15.76992">
        <ele>245.306504</ele>
        <time>2024-05-11T10:05:43.000Z</time>
      </trkpt>
      <trkpt lat="46.760909" lon="15.769705">
        <ele>245.456731</ele>
        <time>2024-05-11T10:05:49.000Z</time>
      </trkpt>
      <trkpt lat="46.761637" lon="15.769561">
        <ele>245.687183</ele>
        <time>2024-05-11T10:05:57.000Z</time>
      </trkpt>
      <trkpt lat="46.762093" lon="15.769537">
        <ele>245.854037</ele>
        <time>2024-05-11T10:06:02.000Z</time>
      </trkpt>
      <trkpt lat="46.762637" lon="15.769546">
        <ele>246.052033</ele>
        <time>2024-05-11T10:06:08.000Z</time>
      </trkpt>
      <trkpt lat="46.763354" lon="15.769602">
        <ele>246.272726</ele>
        <time>2024-05-11T10:06:16.000Z</time>
      </trkpt>
      <trkpt lat="46.763455" lon="15.769614">
        <ele>246.295703</ele>
        <time>2024-05-11T10:06:17.000Z</time>
      </trkpt>
      <trkpt lat="46.767133" lon="15.770014">
        <ele>247.363955</ele>
        <time>2024-05-11T10:06:58.000Z</time>
      </trkpt>
      <trkpt lat="46.768071" lon="15.770037">
        <ele>247.85665</ele>
        <time>2024-05-11T10:07:08.000Z</time>
      </trkpt>
      <trkpt lat="46.76894" lon="15.769968">
        <ele>248.34469</ele>
        <time>2024-05-11T10:07:18.000Z</time>
      </trkpt>
      <trkpt lat="46.769461" lon="15.769853">
        <ele>248.664183</ele>
        <time>2024-05-11T10:07:24.000Z</time>
      </trkpt>
      <trkpt lat="46.772006" lon="15.769276">
        <ele>250.106936</ele>
        <time>2024-05-11T10:07:53.000Z</time>
      </trkpt>
      <trkpt lat="46.772846" lon="15.769013">
        <ele>250.540184</ele>
        <time>2024-05-11T10:08:03.000Z</time>
      </trkpt>
      <trkpt lat="46.773684" lon="15.768721">
        <ele>250.977133</ele>
        <time>2024-05-11T10:08:13.000Z</time>
      </trkpt>
      <trkpt lat="46.774099" lon="15.768549">
        <ele>251.133196</ele>
        <time>2024-05-11T10:08:18.000Z</time>
      </trkpt>
      <trkpt lat="46.774576" lon="15.76825">
        <ele>251.30588</ele>
        <time>2024-05-11T10:08:24.000Z</time>
      </trkpt>
      <trkpt lat="46.77499" lon="15.767956">
        <ele>251.461001</ele>
        <time>2024-05-11T10:08:29.000Z</time>
      </trkpt>
      <trkpt lat="46.775309" lon="15.767822">
        <ele>251.575032</ele>
        <time>2024-05-11T10:08:33.000Z</time>
      </trkpt>
      <trkpt lat="46.775803" lon="15.767778">
        <ele>251.749037</ele>
        <time>2024-05-11T10:08:39.000Z</time>
      </trkpt>
      <trkpt lat="46.77592" lon="15.76781">
        <ele>251.785596</ele>
        <time>2024-05-11T10:08:40.000Z</time>
      </trkpt>
      <trkpt lat="46.776176" lon="15.76788">
        <ele>251.879958</ele>
        <time>2024-05-11T10:08:43.000Z</time>
      </trkpt>
      <trkpt lat="46.776829" lon="15.768084">
        <ele>252.1182</ele>
        <time>2024-05-11T10:08:50.000Z</time>
      </trkpt>
      <trkpt lat="46.777067" lon="15.768071">
        <ele>252.204037</ele>
        <time>2024-05-11T10:08:53.000Z</time>
      </trkpt>
      <trkpt lat="46.777316" lon="15.767982">
        <ele>252.31533</ele>
        <time>2024-05-11T10:08:56.000Z</time>
      </trkpt>
      <trkpt lat="46.778174" lon="15.767657">
        <ele>252.758874</ele>
        <time>2024-05-11T10:09:06.000Z</time>
      </trkpt>
      <trkpt lat="46.778253" lon="15.767632">
        <ele>252.802287</ele>
        <time>2024-05-11T10:09:07.000Z</time>
      </trkpt>
      <trkpt lat="46.778407" lon="15.76758">
        <ele>252.875712</ele>
        <time>2024-05-11T10:09:09.000Z</time>
      </trkpt>
      <trkpt lat="46.778662" lon="15.767391">
        <ele>253.019111</ele>
        <time>2024-05-11T10:09:12.000Z</time>
      </trkpt>
      <trkpt lat="46.778699" lon="15.767346">
        <ele>253.044263</ele>
        <time>2024-05-11T10:09:13.000Z</time>
      </trkpt>
      <trkpt lat="46.778922" lon="15.767108">
        <ele>253.177792</ele>
        <time>2024-05-11T10:09:16.000Z</time>
      </trkpt>
      <trkpt lat="46.779153" lon="15.766755">
        <ele>253.310432</ele>
        <time>2024-05-11T10:09:20.000Z</time>
      </trkpt>
      <trkpt lat="46.77932" lon="15.766507">
        <ele>253.409478</ele>
        <time>2024-05-11T10:09:23.000Z</time>
      </trkpt>
      <trkpt lat="46.779475" lon="15.766271">
        <ele>253.499087</ele>
        <time>2024-05-11T10:09:25.000Z</time>
      </trkpt>
      <trkpt lat="46.779768" lon="15.766484">
        <ele>253.632621</ele>
        <time>2024-05-11T10:09:29.000Z</time>
      </trkpt>
      <trkpt lat="46.779986" lon="15.766614">
        <ele>253.724357</ele>
        <time>2024-05-11T10:09:32.000Z</time>
      </trkpt>
      <trkpt lat="46.779986" lon="15.766624">
        <ele>253.729192</ele>
        <time>2024-05-11T10:09:32.000Z</time>
      </trkpt>
      <trkpt lat="46.780177" lon="15.766809">
        <ele>253.816837</ele>
        <time>2024-05-11T10:09:35.000Z</time>
      </trkpt>
      <trkpt lat="46.780297" lon="15.767007">
        <ele>253.897365</ele>
        <time>2024-05-11T10:09:37.000Z</time>
      </trkpt>
      <trkpt lat="46.780361" lon="15.767165">
        <ele>253.955826</ele>
        <time>2024-05-11T10:09:38.000Z</time>
      </trkpt>
      <trkpt lat="46.78052" lon="15.767567">
        <ele>254.112577</ele>
        <time>2024-05-11T10:09:42.000Z</time>
      </trkpt>
      <trkpt lat="46.780591" lon="15.767639">
        <ele>254.160977</ele>
        <time>2024-05-11T10:09:43.000Z</time>
      </trkpt>
      <trkpt lat="46.780725" lon="15.76771">
        <ele>254.229244</ele>
        <time>2024-05-11T10:09:45.000Z</time>
      </trkpt>
      <trkpt lat="46.781096" lon="15.7676">
        <ele>254.415606</ele>
        <time>2024-05-11T10:09:49.000Z</time>
      </trkpt>
      <trkpt lat="46.781159" lon="15.767631">
        <ele>254.441564</ele>
        <time>2024-05-11T10:09:50.000Z</time>
      </trkpt>
      <trkpt lat="46.781491" lon="15.76773">
        <ele>254.614421</ele>
        <time>2024-05-11T10:09:54.000Z</time>
      </trkpt>
      <trkpt lat="46.781548" lon="15.767733">
        <ele>254.636532</ele>
        <time>2024-05-11T10:09:55.000Z</time>
      </trkpt>
      <trkpt lat="46.781727" lon="15.767792">
        <ele>254.726026</ele>
        <time>2024-05-11T10:09:57.000Z</time>
      </trkpt>
      <trkpt lat="46.781776" lon="15.767833">
        <ele>254.758</ele>
        <time>2024-05-11T10:09:58.000Z</time>
      </trkpt>
      <trkpt lat="46.782029" lon="15.768018">
        <ele>255.348503</ele>
        <time>2024-05-11T10:10:01.000Z</time>
      </trkpt>
      <trkpt lat="46.782123" lon="15.768241">
        <ele>255.688412</ele>
        <time>2024-05-11T10:10:03.000Z</time>
      </trkpt>
      <trkpt lat="46.782194" lon="15.768464">
        <ele>256.043512</ele>
        <time>2024-05-11T10:10:05.000Z</time>
      </trkpt>
      <trkpt lat="46.7823" lon="15.768817">
        <ele>256.590322</ele>
        <time>2024-05-11T10:10:08.000Z</time>
      </trkpt>
      <trkpt lat="46.782512" lon="15.769061">
        <ele>257.117302</ele>
        <time>2024-05-11T10:10:11.000Z</time>
      </trkpt>
      <trkpt lat="46.782868" lon="15.769249">
        <ele>257.896877</ele>
        <time>2024-05-11T10:10:15.000Z</time>
      </trkpt>
      <trkpt lat="46.783343" lon="15.769587">
        <ele>259.403452</ele>
        <time>2024-05-11T10:10:21.000Z</time>
      </trkpt>
      <trkpt lat="46.783896" lon="15.770061">
        <ele>261.660446</ele>
        <time>2024-05-11T10:10:28.000Z</time>
      </trkpt>
      <trkpt lat="46.785069" lon="15.770704">
        <ele>265.353539</ele>
        <time>2024-05-11T10:10:42.000Z</time>
      </trkpt>
      <trkpt lat="46.785433" lon="15.770882">
        <ele>265.94333</ele>
        <time>2024-05-11T10:10:46.000Z</time>
      </trkpt>
      <trkpt lat="46.785691" lon="15.771035">
        <ele>266.405188</ele>
        <time>2024-05-11T10:10:49.000Z</time>
      </trkpt>
      <trkpt lat="46.786294" lon="15.771179">
        <ele>267.344667</ele>
        <time>2024-05-11T10:10:56.000Z</time>
      </trkpt>
      <trkpt lat="46.786613" lon="15.771305">
        <ele>267.649892</ele>
        <time>2024-05-11T10:11:00.000Z</time>
      </trkpt>
      <trkpt lat="46.786877" lon="15.771472">
        <ele>267.736214</ele>
        <time>2024-05-11T10:11:03.000Z</time>
      </trkpt>
      <trkpt lat="46.786947" lon="15.771525">
        <ele>267.761777</ele>
        <time>2024-05-11T10:11:04.000Z</time>
      </trkpt>
      <trkpt lat="46.78719" lon="15.771598">
        <ele>267.837793</ele>
        <time>2024-05-11T10:11:07.000Z</time>
      </trkpt>
      <trkpt lat="46.787265" lon="15.771621">
        <ele>267.856462</ele>
        <time>2024-05-11T10:11:08.000Z</time>
      </trkpt>
      <trkpt lat="46.787578" lon="15.771671">
        <ele>267.953594</ele>
        <time>2024-05-11T10:11:12.000Z</time>
      </trkpt>
      <trkpt lat="46.787741" lon="15.771698">
        <ele>268.006162</ele>
        <time>2024-05-11T10:11:14.000Z</time>
      </trkpt>
      <trkpt lat="46.787856" lon="15.771705">
        <ele>268.037027</ele>
        <time>2024-05-11T10:11:15.000Z</time>
      </trkpt>
      <trkpt lat="46.788146" lon="15.771746">
        <ele>268.129878</ele>
        <time>2024-05-11T10:11:18.000Z</time>
      </trkpt>
      <trkpt lat="46.788706" lon="15.77194">
        <ele>268.479892</ele>
        <time>2024-05-11T10:11:24.000Z</time>
      </trkpt>
      <trkpt lat="46.789029" lon="15.772045">
        <ele>268.695893</ele>
        <time>2024-05-11T10:11:28.000Z</time>
      </trkpt>
      <trkpt lat="46.789783" lon="15.772208">
        <ele>269.192734</ele>
        <time>2024-05-11T10:11:36.000Z</time>
      </trkpt>
      <trkpt lat="46.790286" lon="15.772641">
        <ele>269.953581</ele>
        <time>2024-05-11T10:11:42.000Z</time>
      </trkpt>
      <trkpt lat="46.790399" lon="15.772731">
        <ele>270.160963</ele>
        <time>2024-05-11T10:11:43.000Z</time>
      </trkpt>
      <trkpt lat="46.790649" lon="15.773028">
        <ele>270.669033</ele>
        <time>2024-05-11T10:11:47.000Z</time>
      </trkpt>
      <trkpt lat="46.79084" lon="15.773429">
        <ele>271.208673</ele>
        <time>2024-05-11T10:11:51.000Z</time>
      </trkpt>
      <trkpt lat="46.790984" lon="15.773916">
        <ele>271.784804</ele>
        <time>2024-05-11T10:11:55.000Z</time>
      </trkpt>
      <trkpt lat="46.79108" lon="15.774299">
        <ele>272.213569</ele>
        <time>2024-05-11T10:11:58.000Z</time>
      </trkpt>
      <trkpt lat="46.791241" lon="15.774666">
        <ele>272.600615</ele>
        <time>2024-05-11T10:12:01.000Z</time>
      </trkpt>
      <trkpt lat="46.791351" lon="15.774868">
        <ele>272.847617</ele>
        <time>2024-05-11T10:12:03.000Z</time>
      </trkpt>
      <trkpt lat="46.791979" lon="15.775833">
        <ele>274.038082</ele>
        <time>2024-05-11T10:12:13.000Z</time>
      </trkpt>
      <trkpt lat="46.792461" lon="15.776418">
        <ele>274.380527</ele>
        <time>2024-05-11T10:12:20.000Z</time>
      </trkpt>
      <trkpt lat="46.792615" lon="15.776872">
        <ele>274.178461</ele>
        <time>2024-05-11T10:12:24.000Z</time>
      </trkpt>
      <trkpt lat="46.792718" lon="15.777871">
        <ele>273.769465</ele>
        <time>2024-05-11T10:12:32.000Z</time>
      </trkpt>
      <trkpt lat="46.792775" lon="15.778238">
        <ele>273.622356</ele>
        <time>2024-05-11T10:12:35.000Z</time>
      </trkpt>
      <trkpt lat="46.792991" lon="15.778783">
        <ele>272.824482</ele>
        <time>2024-05-11T10:12:40.000Z</time>
      </trkpt>
      <trkpt lat="46.79324" lon="15.779179">
        <ele>271.493865</ele>
        <time>2024-05-11T10:12:44.000Z</time>
      </trkpt>
      <trkpt lat="46.793313" lon="15.779287">
        <ele>271.077892</ele>
        <time>2024-05-11T10:12:45.000Z</time>
      </trkpt>
      <trkpt lat="46.793556" lon="15.779424">
        <ele>270.148154</ele>
        <time>2024-05-11T10:12:48.000Z</time>
      </trkpt>
      <trkpt lat="46.793678" lon="15.779459">
        <ele>269.689439</ele>
        <time>2024-05-11T10:12:49.000Z</time>
      </trkpt>
      <trkpt lat="46.793811" lon="15.77945">
        <ele>269.222071</ele>
        <time>2024-05-11T10:12:50.000Z</time>
      </trkpt>
      <trkpt lat="46.794131" lon="15.779277">
        <ele>267.966068</ele>
        <time>2024-05-11T10:12:54.000Z</time>
      </trkpt>
      <trkpt lat="46.794172" lon="15.779272">
        <ele>267.772018</ele>
        <time>2024-05-11T10:12:54.000Z</time>
      </trkpt>
      <trkpt lat="46.79433" lon="15.779211">
        <ele>267.202106</ele>
        <time>2024-05-11T10:12:56.000Z</time>
      </trkpt>
      <trkpt lat="46.794702" lon="15.779172">
        <ele>266.574505</ele>
        <time>2024-05-11T10:13:00.000Z</time>
      </trkpt>
      <trkpt lat="46.794861" lon="15.77907">
        <ele>266.394327</ele>
        <time>2024-05-11T10:13:02.000Z</time>
      </trkpt>
      <trkpt lat="46.795016" lon="15.778867">
        <ele>266.178159</ele>
        <time>2024-05-11T10:13:04.000Z</time>
      </trkpt>
      <trkpt lat="46.795273" lon="15.778585">
        <ele>265.849753</ele>
        <time>2024-05-11T10:13:08.000Z</time>
      </trkpt>
      <trkpt lat="46.795396" lon="15.778485">
        <ele>265.693049</ele>
        <time>2024-05-11T10:13:10.000Z</time>
      </trkpt>
      <trkpt lat="46.795486" lon="15.778455">
        <ele>265.605342</ele>
        <time>2024-05-11T10:13:11.000Z</time>
      </trkpt>
      <trkpt lat="46.795536" lon="15.778439">
        <ele>265.55358</ele>
        <time>2024-05-11T10:13:12.000Z</time>
      </trkpt>
      <trkpt lat="46.79572" lon="15.778601">
        <ele>265.333452</ele>
        <time>2024-05-11T10:13:14.000Z</time>
      </trkpt>
      <trkpt lat="46.795894" lon="15.77888">
        <ele>265.056006</ele>
        <time>2024-05-11T10:13:17.000Z</time>
      </trkpt>
      <trkpt lat="46.79594" lon="15.778971">
        <ele>265.025834</ele>
        <time>2024-05-11T10:13:18.000Z</time>
      </trkpt>
      <trkpt lat="46.796176" lon="15.779334">
        <ele>265.400941</ele>
        <time>2024-05-11T10:13:22.000Z</time>
      </trkpt>
      <trkpt lat="46.796397" lon="15.779636">
        <ele>265.75101</ele>
        <time>2024-05-11T10:13:25.000Z</time>
      </trkpt>
      <trkpt lat="46.796521" lon="15.779701">
        <ele>265.891308</ele>
        <time>2024-05-11T10:13:26.000Z</time>
      </trkpt>
      <trkpt lat="46.796625" lon="15.779712">
        <ele>266.010352</ele>
        <time>2024-05-11T10:13:27.000Z</time>
      </trkpt>
      <trkpt lat="46.796759" lon="15.779667">
        <ele>266.167157</ele>
        <time>2024-05-11T10:13:29.000Z</time>
      </trkpt>
      <trkpt lat="46.797002" lon="15.779471">
        <ele>266.479092</ele>
        <time>2024-05-11T10:13:32.000Z</time>
      </trkpt>
      <trkpt lat="46.797289" lon="15.779227">
        <ele>266.867766</ele>
        <time>2024-05-11T10:13:36.000Z</time>
      </trkpt>
      <trkpt lat="46.797478" lon="15.779994">
        <ele>267.344592</ele>
        <time>2024-05-11T10:13:42.000Z</time>
      </trkpt>
      <trkpt lat="46.797606" lon="15.7807">
        <ele>267.731061</ele>
        <time>2024-05-11T10:13:48.000Z</time>
      </trkpt>
      <trkpt lat="46.79769" lon="15.782166">
        <ele>268.497413</ele>
        <time>2024-05-11T10:13:59.000Z</time>
      </trkpt>
      <trkpt lat="46.797826" lon="15.782985">
        <ele>268.987247</ele>
        <time>2024-05-11T10:14:05.000Z</time>
      </trkpt>
      <trkpt lat="46.797906" lon="15.783367">
        <ele>269.2096</ele>
        <time>2024-05-11T10:14:08.000Z</time>
      </trkpt>
      <trkpt lat="46.798078" lon="15.7839">
        <ele>269.544079</ele>
        <time>2024-05-11T10:14:12.000Z</time>
      </trkpt>
      <trkpt lat="46.798344" lon="15.784583">
        <ele>269.994867</ele>
        <time>2024-05-11T10:14:18.000Z</time>
      </trkpt>
      <trkpt lat="46.798639" lon="15.78518">
        <ele>270.4385</ele>
        <time>2024-05-11T10:14:24.000Z</time>
      </trkpt>
      <trkpt lat="46.79924" lon="15.786245">
        <ele>271.276017</ele>
        <time>2024-05-11T10:14:35.000Z</time>
      </trkpt>
      <trkpt lat="46.799369" lon="15.786553">
        <ele>271.50406</ele>
        <time>2024-05-11T10:14:38.000Z</time>
      </trkpt>
      <trkpt lat="46.799444" lon="15.786795">
        <ele>271.655653</ele>
        <time>2024-05-11T10:14:40.000Z</time>
      </trkpt>
      <trkpt lat="46.799613" lon="15.787256">
        <ele>271.968747</ele>
        <time>2024-05-11T10:14:44.000Z</time>
      </trkpt>
      <trkpt lat="46.799928" lon="15.788192">
        <ele>272.595609</ele>
        <time>2024-05-11T10:14:52.000Z</time>
      </trkpt>
      <trkpt lat="46.800182" lon="15.788612">
        <ele>272.922172</ele>
        <time>2024-05-11T10:14:56.000Z</time>
      </trkpt>
      <trkpt lat="46.800624" lon="15.78926">
        <ele>273.201239</ele>
        <time>2024-05-11T10:15:03.000Z</time>
      </trkpt>
      <trkpt lat="46.800747" lon="15.789501">
        <ele>273.26315</ele>
        <time>2024-05-11T10:15:05.000Z</time>
      </trkpt>
      <trkpt lat="46.80094" lon="15.790102">
        <ele>273.404674</ele>
        <time>2024-05-11T10:15:10.000Z</time>
      </trkpt>
      <trkpt lat="46.801017" lon="15.790455">
        <ele>273.484105</ele>
        <time>2024-05-11T10:15:13.000Z</time>
      </trkpt>
      <trkpt lat="46.801146" lon="15.790891">
        <ele>273.582876</ele>
        <time>2024-05-11T10:15:17.000Z</time>
      </trkpt>
      <trkpt lat="46.801345" lon="15.791314">
        <ele>273.494786</ele>
        <time>2024-05-11T10:15:21.000Z</time>
      </trkpt>
      <trkpt lat="46.801537" lon="15.791614">
        <ele>273.369744</ele>
        <time>2024-05-11T10:15:24.000Z</time>
      </trkpt>
      <trkpt lat="46.801793" lon="15.791871">
        <ele>273.232572</ele>
        <time>2024-05-11T10:15:27.000Z</time>
      </trkpt>
      <trkpt lat="46.802497" lon="15.792197">
        <ele>272.914131</ele>
        <time>2024-05-11T10:15:35.000Z</time>
      </trkpt>
      <trkpt lat="46.802977" lon="15.792542">
        <ele>272.728101</ele>
        <time>2024-05-11T10:15:41.000Z</time>
      </trkpt>
      <trkpt lat="46.803587" lon="15.792823">
        <ele>272.546327</ele>
        <time>2024-05-11T10:15:48.000Z</time>
      </trkpt>
      <trkpt lat="46.803939" lon="15.793085">
        <ele>272.42923</ele>
        <time>2024-05-11T10:15:52.000Z</time>
      </trkpt>
      <trkpt lat="46.804587" lon="15.793643">
        <ele>272.402274</ele>
        <time>2024-05-11T10:16:00.000Z</time>
      </trkpt>
      <trkpt lat="46.805753" lon="15.794509">
        <ele>272.799354</ele>
        <time>2024-05-11T10:16:15.000Z</time>
      </trkpt>
      <trkpt lat="46.806251" lon="15.79481">
        <ele>272.939128</ele>
        <time>2024-05-11T10:16:21.000Z</time>
      </trkpt>
      <trkpt lat="46.806352" lon="15.794881">
        <ele>272.964567</ele>
        <time>2024-05-11T10:16:22.000Z</time>
      </trkpt>
      <trkpt lat="46.806386" lon="15.794911">
        <ele>272.974685</ele>
        <time>2024-05-11T10:16:22.000Z</time>
      </trkpt>
      <trkpt lat="46.806456" lon="15.795042">
        <ele>273.002725</ele>
        <time>2024-05-11T10:16:23.000Z</time>
      </trkpt>
      <trkpt lat="46.806563" lon="15.795361">
        <ele>273.056973</ele>
        <time>2024-05-11T10:16:26.000Z</time>
      </trkpt>
      <trkpt lat="46.806648" lon="15.795607">
        <ele>273.102664</ele>
        <time>2024-05-11T10:16:28.000Z</time>
      </trkpt>
      <trkpt lat="46.806738" lon="15.79587">
        <ele>273.150728</ele>
        <time>2024-05-11T10:16:30.000Z</time>
      </trkpt>
      <trkpt lat="46.806984" lon="15.796444">
        <ele>273.259335</ele>
        <time>2024-05-11T10:16:35.000Z</time>
      </trkpt>
      <trkpt lat="46.807188" lon="15.796808">
        <ele>273.399468</ele>
        <time>2024-05-11T10:16:39.000Z</time>
      </trkpt>
      <trkpt lat="46.807273" lon="15.796951">
        <ele>273.463499</ele>
        <time>2024-05-11T10:16:40.000Z</time>
      </trkpt>
      <trkpt lat="46.807386" lon="15.797175">
        <ele>273.557463</ele>
        <time>2024-05-11T10:16:42.000Z</time>
      </trkpt>
      <trkpt lat="46.807554" lon="15.797569">
        <ele>273.70891</ele>
        <time>2024-05-11T10:16:46.000Z</time>
      </trkpt>
      <trkpt lat="46.807587" lon="15.797686">
        <ele>273.755545</ele>
        <time>2024-05-11T10:16:47.000Z</time>
      </trkpt>
      <trkpt lat="46.807775" lon="15.798113">
        <ele>273.925613</ele>
        <time>2024-05-11T10:16:51.000Z</time>
      </trkpt>
      <trkpt lat="46.807854" lon="15.798436">
        <ele>274.037103</ele>
        <time>2024-05-11T10:16:54.000Z</time>
      </trkpt>
      <trkpt lat="46.808094" lon="15.798386">
        <ele>274.157681</ele>
        <time>2024-05-11T10:16:57.000Z</time>
      </trkpt>
      <trkpt lat="46.808193" lon="15.798352">
        <ele>274.297209</ele>
        <time>2024-05-11T10:16:58.000Z</time>
      </trkpt>
      <trkpt lat="46.8083" lon="15.798087">
        <ele>274.621752</ele>
        <time>2024-05-11T10:17:00.000Z</time>
      </trkpt>
      <trkpt lat="46.808344" lon="15.797832">
        <ele>274.884802</ele>
        <time>2024-05-11T10:17:02.000Z</time>
      </trkpt>
      <trkpt lat="46.808559" lon="15.797205">
        <ele>275.619875</ele>
        <time>2024-05-11T10:17:07.000Z</time>
      </trkpt>
      <trkpt lat="46.808876" lon="15.796526">
        <ele>276.473556</ele>
        <time>2024-05-11T10:17:13.000Z</time>
      </trkpt>
      <trkpt lat="46.809131" lon="15.796169">
        <ele>276.981423</ele>
        <time>2024-05-11T10:17:17.000Z</time>
      </trkpt>
      <trkpt lat="46.809296" lon="15.796018">
        <ele>277.214616</ele>
        <time>2024-05-11T10:17:19.000Z</time>
      </trkpt>
      <trkpt lat="46.809534" lon="15.79615">
        <ele>277.491654</ele>
        <time>2024-05-11T10:17:22.000Z</time>
      </trkpt>
      <trkpt lat="46.809891" lon="15.796463">
        <ele>277.961325</ele>
        <time>2024-05-11T10:17:27.000Z</time>
      </trkpt>
      <trkpt lat="46.810298" lon="15.796751">
        <ele>278.457559</ele>
        <time>2024-05-11T10:17:32.000Z</time>
      </trkpt>
      <trkpt lat="46.811327" lon="15.797756">
        <ele>279.619003</ele>
        <time>2024-05-11T10:17:46.000Z</time>
      </trkpt>
      <trkpt lat="46.812237" lon="15.798374">
        <ele>280.517425</ele>
        <time>2024-05-11T10:17:57.000Z</time>
      </trkpt>
      <trkpt lat="46.812474" lon="15.79846">
        <ele>280.824272</ele>
        <time>2024-05-11T10:18:00.000Z</time>
      </trkpt>
      <trkpt lat="46.812701" lon="15.798486">
        <ele>281.122695</ele>
        <time>2024-05-11T10:18:03.000Z</time>
      </trkpt>
      <trkpt lat="46.813792" lon="15.798346">
        <ele>282.568882</ele>
        <time>2024-05-11T10:18:15.000Z</time>
      </trkpt>
      <trkpt lat="46.814412" lon="15.7983">
        <ele>282.882239</ele>
        <time>2024-05-11T10:18:22.000Z</time>
      </trkpt>
      <trkpt lat="46.814528" lon="15.798311">
        <ele>282.898323</ele>
        <time>2024-05-11T10:18:23.000Z</time>
      </trkpt>
      <trkpt lat="46.816048" lon="15.798979">
        <ele>282.920279</ele>
        <time>2024-05-11T10:18:41.000Z</time>
      </trkpt>
      <trkpt lat="46.816345" lon="15.799065">
        <ele>282.761811</ele>
        <time>2024-05-11T10:18:44.000Z</time>
      </trkpt>
      <trkpt lat="46.81668" lon="15.799174">
        <ele>282.588547</ele>
        <time>2024-05-11T10:18:48.000Z</time>
      </trkpt>
      <trkpt lat="46.817574" lon="15.799538">
        <ele>282.176352</ele>
        <time>2024-05-11T10:18:58.000Z</time>
      </trkpt>
      <trkpt lat="46.817796" lon="15.799576">
        <ele>282.203526</ele>
        <time>2024-05-11T10:19:00.000Z</time>
      </trkpt>
      <trkpt lat="46.818734" lon="15.799853">
        <ele>282.322801</ele>
        <time>2024-05-11T10:19:11.000Z</time>
      </trkpt>
      <trkpt lat="46.819163" lon="15.80009">
        <ele>282.379314</ele>
        <time>2024-05-11T10:19:16.000Z</time>
      </trkpt>
      <trkpt lat="46.819532" lon="15.8003">
        <ele>282.653276</ele>
        <time>2024-05-11T10:19:20.000Z</time>
      </trkpt>
      <trkpt lat="46.820106" lon="15.800297">
        <ele>283.113643</ele>
        <time>2024-05-11T10:19:26.000Z</time>
      </trkpt>
      <trkpt lat="46.820624" lon="15.800142">
        <ele>283.534815</ele>
        <time>2024-05-11T10:19:32.000Z</time>
      </trkpt>
      <trkpt lat="46.820858" lon="15.800013">
        <ele>283.728963</ele>
        <time>2024-05-11T10:19:35.000Z</time>
      </trkpt>
      <trkpt lat="46.821004" lon="15.79987">
        <ele>283.887103</ele>
        <time>2024-05-11T10:19:37.000Z</time>
      </trkpt>
      <trkpt lat="46.821556" lon="15.79962">
        <ele>284.437761</ele>
        <time>2024-05-11T10:19:43.000Z</time>
      </trkpt>
      <trkpt lat="46.822073" lon="15.799472">
        <ele>284.935968</ele>
        <time>2024-05-11T10:19:49.000Z</time>
      </trkpt>
      <trkpt lat="46.822515" lon="15.799192">
        <ele>285.397684</ele>
        <time>2024-05-11T10:19:54.000Z</time>
      </trkpt>
      <trkpt lat="46.823405" lon="15.798473">
        <ele>286.46244</ele>
        <time>2024-05-11T10:20:05.000Z</time>
      </trkpt>
      <trkpt lat="46.824908" lon="15.797352">
        <ele>288.216817</ele>
        <time>2024-05-11T10:20:24.000Z</time>
      </trkpt>
      <trkpt lat="46.8254" lon="15.796956">
        <ele>288.797415</ele>
        <time>2024-05-11T10:20:30.000Z</time>
      </trkpt>
      <trkpt lat="46.825411" lon="15.797029">
        <ele>288.852253</ele>
        <time>2024-05-11T10:20:31.000Z</time>
      </trkpt>
      <trkpt lat="46.825717" lon="15.796794">
        <ele>289.210719</ele>
        <time>2024-05-11T10:20:35.000Z</time>
      </trkpt>
      <trkpt lat="46.825412" lon="15.797034">
        <ele>289.561633</ele>
        <time>2024-05-11T10:20:39.000Z</time>
      </trkpt>
      <trkpt lat="46.825399" lon="15.796954">
        <ele>289.615046</ele>
        <time>2024-05-11T10:20:40.000Z</time>
      </trkpt>
      <trkpt lat="46.825707" lon="15.796725">
        <ele>289.956461</ele>
        <time>2024-05-11T10:20:44.000Z</time>
      </trkpt>
      <trkpt lat="46.826279" lon="15.796287">
        <ele>290.598584</ele>
        <time>2024-05-11T10:20:51.000Z</time>
      </trkpt>
      <trkpt lat="46.826612" lon="15.795976">
        <ele>291.001808</ele>
        <time>2024-05-11T10:20:55.000Z</time>
      </trkpt>
      <trkpt lat="46.826806" lon="15.795811">
        <ele>291.302296</ele>
        <time>2024-05-11T10:20:57.000Z</time>
      </trkpt>
      <trkpt lat="46.826885" lon="15.795752">
        <ele>291.45126</ele>
        <time>2024-05-11T10:20:58.000Z</time>
      </trkpt>
      <trkpt lat="46.827185" lon="15.795464">
        <ele>292.018566</ele>
        <time>2024-05-11T10:21:02.000Z</time>
      </trkpt>
      <trkpt lat="46.827547" lon="15.794979">
        <ele>292.793614</ele>
        <time>2024-05-11T10:21:07.000Z</time>
      </trkpt>
      <trkpt lat="46.827796" lon="15.794693">
        <ele>293.309084</ele>
        <time>2024-05-11T10:21:11.000Z</time>
      </trkpt>
      <trkpt lat="46.827895" lon="15.794602">
        <ele>293.469573</ele>
        <time>2024-05-11T10:21:12.000Z</time>
      </trkpt>
      <trkpt lat="46.828079" lon="15.794409">
        <ele>293.842478</ele>
        <time>2024-05-11T10:21:15.000Z</time>
      </trkpt>
      <trkpt lat="46.828253" lon="15.794256">
        <ele>294.04287</ele>
        <time>2024-05-11T10:21:17.000Z</time>
      </trkpt>
      <trkpt lat="46.828459" lon="15.79406">
        <ele>294.250859</ele>
        <time>2024-05-11T10:21:20.000Z</time>
      </trkpt>
      <trkpt lat="46.8288" lon="15.793704">
        <ele>294.599493</ele>
        <time>2024-05-11T10:21:25.000Z</time>
      </trkpt>
      <trkpt lat="46.828925" lon="15.793556">
        <ele>294.742474</ele>
        <time>2024-05-11T10:21:27.000Z</time>
      </trkpt>
      <trkpt lat="46.829074" lon="15.793409">
        <ele>294.886126</ele>
        <time>2024-05-11T10:21:29.000Z</time>
      </trkpt>
      <trkpt lat="46.829121" lon="15.793341">
        <ele>294.949648</ele>
        <time>2024-05-11T10:21:30.000Z</time>
      </trkpt>
      <trkpt lat="46.829184" lon="15.793236">
        <ele>295.024925</ele>
        <time>2024-05-11T10:21:31.000Z</time>
      </trkpt>
      <trkpt lat="46.82936" lon="15.793011">
        <ele>295.216707</ele>
        <time>2024-05-11T10:21:34.000Z</time>
      </trkpt>
      <trkpt lat="46.829407" lon="15.792999">
        <ele>295.267928</ele>
        <time>2024-05-11T10:21:35.000Z</time>
      </trkpt>
      <trkpt lat="46.829486" lon="15.793063">
        <ele>295.345491</ele>
        <time>2024-05-11T10:21:36.000Z</time>
      </trkpt>
      <trkpt lat="46.8297" lon="15.793383">
        <ele>295.206826</ele>
        <time>2024-05-11T10:21:39.000Z</time>
      </trkpt>
      <trkpt lat="46.829764" lon="15.79345">
        <ele>295.134789</ele>
        <time>2024-05-11T10:21:40.000Z</time>
      </trkpt>
      <trkpt lat="46.829897" lon="15.793621">
        <ele>294.944887</ele>
        <time>2024-05-11T10:21:42.000Z</time>
      </trkpt>
      <trkpt lat="46.830015" lon="15.793731">
        <ele>294.79824</ele>
        <time>2024-05-11T10:21:44.000Z</time>
      </trkpt>
      <trkpt lat="46.830239" lon="15.793946">
        <ele>294.506338</ele>
        <time>2024-05-11T10:21:47.000Z</time>
      </trkpt>
      <trkpt lat="46.830281" lon="15.793991">
        <ele>294.464161</ele>
        <time>2024-05-11T10:21:48.000Z</time>
      </trkpt>
      <trkpt lat="46.83052" lon="15.794205">
        <ele>294.164116</ele>
        <time>2024-05-11T10:21:51.000Z</time>
      </trkpt>
      <trkpt lat="46.830667" lon="15.794358">
        <ele>293.972478</ele>
        <time>2024-05-11T10:21:53.000Z</time>
      </trkpt>
      <trkpt lat="46.830745" lon="15.794438">
        <ele>293.871827</ele>
        <time>2024-05-11T10:21:54.000Z</time>
      </trkpt>
      <trkpt lat="46.831217" lon="15.794865">
        <ele>293.599998</ele>
        <time>2024-05-11T10:22:00.000Z</time>
      </trkpt>
      <trkpt lat="46.8314" lon="15.795019">
        <ele>293.661048</ele>
        <time>2024-05-11T10:22:02.000Z</time>
      </trkpt>
      <trkpt lat="46.832358" lon="15.795711">
        <ele>293.974148</ele>
        <time>2024-05-11T10:22:14.000Z</time>
      </trkpt>
      <trkpt lat="46.832562" lon="15.79584">
        <ele>294.038587</ele>
        <time>2024-05-11T10:22:16.000Z</time>
      </trkpt>
      <trkpt lat="46.832883" lon="15.795971">
        <ele>294.380434</ele>
        <time>2024-05-11T10:22:20.000Z</time>
      </trkpt>
      <trkpt lat="46.833109" lon="15.796051">
        <ele>294.65385</ele>
        <time>2024-05-11T10:22:23.000Z</time>
      </trkpt>
      <trkpt lat="46.833178" lon="15.796076">
        <ele>294.744592</ele>
        <time>2024-05-11T10:22:24.000Z</time>
      </trkpt>
      <trkpt lat="46.833363" lon="15.796139">
        <ele>294.983226</ele>
        <time>2024-05-11T10:22:26.000Z</time>
      </trkpt>
      <trkpt lat="46.833753" lon="15.79626">
        <ele>295.455975</ele>
        <time>2024-05-11T10:22:30.000Z</time>
      </trkpt>
      <trkpt lat="46.834295" lon="15.79645">
        <ele>296.142721</ele>
        <time>2024-05-11T10:22:36.000Z</time>
      </trkpt>
      <trkpt lat="46.834448" lon="15.796553">
        <ele>296.24047</ele>
        <time>2024-05-11T10:22:38.000Z</time>
      </trkpt>
      <trkpt lat="46.834977" lon="15.797153">
        <ele>296.268252</ele>
        <time>2024-05-11T10:22:45.000Z</time>
      </trkpt>
      <trkpt lat="46.835168" lon="15.797374">
        <ele>296.278295</ele>
        <time>2024-05-11T10:22:48.000Z</time>
      </trkpt>
      <trkpt lat="46.835335" lon="15.797537">
        <ele>296.286718</ele>
        <time>2024-05-11T10:22:50.000Z</time>
      </trkpt>
      <trkpt lat="46.835887" lon="15.798208">
        <ele>296.382942</ele>
        <time>2024-05-11T10:22:58.000Z</time>
      </trkpt>
      <trkpt lat="46.836254" lon="15.79856">
        <ele>296.628929</ele>
        <time>2024-05-11T10:23:03.000Z</time>
      </trkpt>
      <trkpt lat="46.836518" lon="15.798704">
        <ele>296.791585</ele>
        <time>2024-05-11T10:23:06.000Z</time>
      </trkpt>
      <trkpt lat="46.837272" lon="15.799014">
        <ele>297.234328</ele>
        <time>2024-05-11T10:23:15.000Z</time>
      </trkpt>
      <trkpt lat="46.837516" lon="15.799049">
        <ele>297.377197</ele>
        <time>2024-05-11T10:23:18.000Z</time>
      </trkpt>
      <trkpt lat="46.838333" lon="15.799002">
        <ele>297.922767</ele>
        <time>2024-05-11T10:23:27.000Z</time>
      </trkpt>
      <trkpt lat="46.838553" lon="15.799001">
        <ele>298.062471</ele>
        <time>2024-05-11T10:23:29.000Z</time>
      </trkpt>
      <trkpt lat="46.838763" lon="15.799062">
        <ele>298.203476</ele>
        <time>2024-05-11T10:23:31.000Z</time>
      </trkpt>
      <trkpt lat="46.83903" lon="15.799212">
        <ele>298.393566</ele>
        <time>2024-05-11T10:23:34.000Z</time>
      </trkpt>
      <trkpt lat="46.839495" lon="15.799521">
        <ele>298.574208</ele>
        <time>2024-05-11T10:23:40.000Z</time>
      </trkpt>
      <trkpt lat="46.839677" lon="15.799601">
        <ele>298.608695</ele>
        <time>2024-05-11T10:23:42.000Z</time>
      </trkpt>
      <trkpt lat="46.840216" lon="15.799645">
        <ele>298.703361</ele>
        <time>2024-05-11T10:23:48.000Z</time>
      </trkpt>
      <trkpt lat="46.840606" lon="15.799846">
        <ele>298.774452</ele>
        <time>2024-05-11T10:23:53.000Z</time>
      </trkpt>
      <trkpt lat="46.841235" lon="15.80028">
        <ele>298.960158</ele>
        <time>2024-05-11T10:24:01.000Z</time>
      </trkpt>
      <trkpt lat="46.841491" lon="15.800092">
        <ele>299.064356</ele>
        <time>2024-05-11T10:24:04.000Z</time>
      </trkpt>
      <trkpt lat="46.841908" lon="15.799754">
        <ele>299.232429</ele>
        <time>2024-05-11T10:24:09.000Z</time>
      </trkpt>
      <trkpt lat="46.842006" lon="15.799601">
        <ele>299.28465</ele>
        <time>2024-05-11T10:24:11.000Z</time>
      </trkpt>
      <trkpt lat="46.842302" lon="15.799187">
        <ele>299.430924</ele>
        <time>2024-05-11T10:24:16.000Z</time>
      </trkpt>
      <trkpt lat="46.842497" lon="15.798924">
        <ele>299.581815</ele>
        <time>2024-05-11T10:24:19.000Z</time>
      </trkpt>
      <trkpt lat="46.84256" lon="15.798783">
        <ele>299.670719</ele>
        <time>2024-05-11T10:24:20.000Z</time>
      </trkpt>
      <trkpt lat="46.842768" lon="15.798017">
        <ele>300.106014</ele>
        <time>2024-05-11T10:24:26.000Z</time>
      </trkpt>
      <trkpt lat="46.842798" lon="15.79793">
        <ele>300.156355</ele>
        <time>2024-05-11T10:24:27.000Z</time>
      </trkpt>
      <trkpt lat="46.842851" lon="15.797849">
        <ele>300.206305</ele>
        <time>2024-05-11T10:24:28.000Z</time>
      </trkpt>
      <trkpt lat="46.843103" lon="15.797598">
        <ele>300.443646</ele>
        <time>2024-05-11T10:24:31.000Z</time>
      </trkpt>
      <trkpt lat="46.843345" lon="15.797238">
        <ele>300.717213</ele>
        <time>2024-05-11T10:24:35.000Z</time>
      </trkpt>
      <trkpt lat="46.844357" lon="15.795391">
        <ele>302.2881</ele>
        <time>2024-05-11T10:24:53.000Z</time>
      </trkpt>
      <trkpt lat="46.844862" lon="15.79448">
        <ele>303.197198</ele>
        <time>2024-05-11T10:25:02.000Z</time>
      </trkpt>
      <trkpt lat="46.845004" lon="15.794147">
        <ele>303.54511</ele>
        <time>2024-05-11T10:25:05.000Z</time>
      </trkpt>
      <trkpt lat="46.845018" lon="15.79378">
        <ele>303.864479</ele>
        <time>2024-05-11T10:25:08.000Z</time>
      </trkpt>
      <trkpt lat="46.844978" lon="15.793375">
        <ele>304.216978</ele>
        <time>2024-05-11T10:25:11.000Z</time>
      </trkpt>
      <trkpt lat="46.845041" lon="15.792998">
        <ele>304.571138</ele>
        <time>2024-05-11T10:25:14.000Z</time>
      </trkpt>
      <trkpt lat="46.845095" lon="15.792869">
        <ele>304.708303</ele>
        <time>2024-05-11T10:25:15.000Z</time>
      </trkpt>
      <trkpt lat="46.845269" lon="15.792721">
        <ele>304.962039</ele>
        <time>2024-05-11T10:25:17.000Z</time>
      </trkpt>
      <trkpt lat="46.8457" lon="15.792722">
        <ele>305.422551</ele>
        <time>2024-05-11T10:25:22.000Z</time>
      </trkpt>
      <trkpt lat="46.846129" lon="15.792629">
        <ele>305.898198</ele>
        <time>2024-05-11T10:25:27.000Z</time>
      </trkpt>
      <trkpt lat="46.847282" lon="15.792043">
        <ele>307.157861</ele>
        <time>2024-05-11T10:25:41.000Z</time>
      </trkpt>
      <trkpt lat="46.847531" lon="15.791875">
        <ele>307.379104</ele>
        <time>2024-05-11T10:25:44.000Z</time>
      </trkpt>
      <trkpt lat="46.849766" lon="15.789557">
        <ele>309.193682</ele>
        <time>2024-05-11T10:26:14.000Z</time>
      </trkpt>
      <trkpt lat="46.850291" lon="15.789036">
        <ele>309.31552</ele>
        <time>2024-05-11T10:26:21.000Z</time>
      </trkpt>
      <trkpt lat="46.850921" lon="15.788533">
        <ele>309.230543</ele>
        <time>2024-05-11T10:26:29.000Z</time>
      </trkpt>
      <trkpt lat="46.851166" lon="15.788387">
        <ele>309.200446</ele>
        <time>2024-05-11T10:26:32.000Z</time>
      </trkpt>
      <trkpt lat="46.851278" lon="15.788302">
        <ele>309.184509</ele>
        <time>2024-05-11T10:26:33.000Z</time>
      </trkpt>
      <trkpt lat="46.85396" lon="15.786552">
        <ele>309.462558</ele>
        <time>2024-05-11T10:27:06.000Z</time>
      </trkpt>
      <trkpt lat="46.85431" lon="15.786265">
        <ele>309.613788</ele>
        <time>2024-05-11T10:27:10.000Z</time>
      </trkpt>
      <trkpt lat="46.854722" lon="15.785754">
        <ele>309.812454</ele>
        <time>2024-05-11T10:27:16.000Z</time>
      </trkpt>
      <trkpt lat="46.855053" lon="15.785221">
        <ele>310.073045</ele>
        <time>2024-05-11T10:27:21.000Z</time>
      </trkpt>
      <trkpt lat="46.855384" lon="15.784768">
        <ele>310.323815</ele>
        <time>2024-05-11T10:27:26.000Z</time>
      </trkpt>
      <trkpt lat="46.855643" lon="15.784508">
        <ele>310.497759</ele>
        <time>2024-05-11T10:27:29.000Z</time>
      </trkpt>
      <trkpt lat="46.855923" lon="15.784321">
        <ele>310.666565</ele>
        <time>2024-05-11T10:27:32.000Z</time>
      </trkpt>
      <trkpt lat="46.855951" lon="15.784281">
        <ele>310.690559</ele>
        <time>2024-05-11T10:27:32.000Z</time>
      </trkpt>
      <trkpt lat="46.856538" lon="15.784078">
        <ele>311.080112</ele>
        <time>2024-05-11T10:27:39.000Z</time>
      </trkpt>
      <trkpt lat="46.857219" lon="15.783951">
        <ele>311.57839</ele>
        <time>2024-05-11T10:27:47.000Z</time>
      </trkpt>
      <trkpt lat="46.857363" lon="15.783929">
        <ele>311.694315</ele>
        <time>2024-05-11T10:27:49.000Z</time>
      </trkpt>
      <trkpt lat="46.857696" lon="15.783748">
        <ele>311.947667</ele>
        <time>2024-05-11T10:27:53.000Z</time>
      </trkpt>
      <trkpt lat="46.858078" lon="15.783426">
        <ele>312.242602</ele>
        <time>2024-05-11T10:27:58.000Z</time>
      </trkpt>
      <trkpt lat="46.858756" lon="15.782772">
        <ele>312.682479</ele>
        <time>2024-05-11T10:28:07.000Z</time>
      </trkpt>
      <trkpt lat="46.860202" lon="15.781301">
        <ele>313.967001</ele>
        <time>2024-05-11T10:28:27.000Z</time>
      </trkpt>
      <trkpt lat="46.860532" lon="15.780994">
        <ele>314.314882</ele>
        <time>2024-05-11T10:28:31.000Z</time>
      </trkpt>
      <trkpt lat="46.860881" lon="15.780769">
        <ele>314.660149</ele>
        <time>2024-05-11T10:28:35.000Z</time>
      </trkpt>
      <trkpt lat="46.861113" lon="15.780662">
        <ele>314.969632</ele>
        <time>2024-05-11T10:28:38.000Z</time>
      </trkpt>
      <trkpt lat="46.861211" lon="15.780618">
        <ele>315.11344</ele>
        <time>2024-05-11T10:28:39.000Z</time>
      </trkpt>
      <trkpt lat="46.861329" lon="15.780567">
        <ele>315.297258</ele>
        <time>2024-05-11T10:28:40.000Z</time>
      </trkpt>
      <trkpt lat="46.861783" lon="15.780453">
        <ele>315.964082</ele>
        <time>2024-05-11T10:28:45.000Z</time>
      </trkpt>
      <trkpt lat="46.862781" lon="15.780399">
        <ele>317.381093</ele>
        <time>2024-05-11T10:28:56.000Z</time>
      </trkpt>
      <trkpt lat="46.864418" lon="15.780329">
        <ele>317.816031</ele>
        <time>2024-05-11T10:29:14.000Z</time>
      </trkpt>
      <trkpt lat="46.864806" lon="15.78024">
        <ele>317.879194</ele>
        <time>2024-05-11T10:29:18.000Z</time>
      </trkpt>
      <trkpt lat="46.865023" lon="15.780143">
        <ele>317.906176</ele>
        <time>2024-05-11T10:29:21.000Z</time>
      </trkpt>
      <trkpt lat="46.865207" lon="15.780069">
        <ele>317.929539</ele>
        <time>2024-05-11T10:29:23.000Z</time>
      </trkpt>
      <trkpt lat="46.865389" lon="15.779993">
        <ele>317.951451</ele>
        <time>2024-05-11T10:29:25.000Z</time>
      </trkpt>
      <trkpt lat="46.8656" lon="15.779951">
        <ele>317.976747</ele>
        <time>2024-05-11T10:29:27.000Z</time>
      </trkpt>
      <trkpt lat="46.865741" lon="15.780069">
        <ele>317.996354</ele>
        <time>2024-05-11T10:29:29.000Z</time>
      </trkpt>
      <trkpt lat="46.86583" lon="15.78029">
        <ele>318.017005</ele>
        <time>2024-05-11T10:29:31.000Z</time>
      </trkpt>
      <trkpt lat="46.866002" lon="15.780579">
        <ele>318.049002</ele>
        <time>2024-05-11T10:29:34.000Z</time>
      </trkpt>
      <trkpt lat="46.866119" lon="15.780701">
        <ele>318.106001</ele>
        <time>2024-05-11T10:29:36.000Z</time>
      </trkpt>
      <trkpt lat="46.866294" lon="15.780871">
        <ele>318.392764</ele>
        <time>2024-05-11T10:29:38.000Z</time>
      </trkpt>
      <trkpt lat="46.866563" lon="15.781053">
        <ele>318.814993</ele>
        <time>2024-05-11T10:29:41.000Z</time>
      </trkpt>
      <trkpt lat="46.867293" lon="15.78126">
        <ele>319.825325</ele>
        <time>2024-05-11T10:29:49.000Z</time>
      </trkpt>
      <trkpt lat="46.86821" lon="15.781585">
        <ele>322.337753</ele>
        <time>2024-05-11T10:29:59.000Z</time>
      </trkpt>
      <trkpt lat="46.869676" lon="15.781984">
        <ele>329.335823</ele>
        <time>2024-05-11T10:30:16.000Z</time>
      </trkpt>
      <trkpt lat="46.870024" lon="15.782179">
        <ele>332.667217</ele>
        <time>2024-05-11T10:30:20.000Z</time>
      </trkpt>
      <trkpt lat="46.870572" lon="15.782576">
        <ele>338.287206</ele>
        <time>2024-05-11T10:30:27.000Z</time>
      </trkpt>
      <trkpt lat="46.871009" lon="15.78301">
        <ele>343.062019</ele>
        <time>2024-05-11T10:30:33.000Z</time>
      </trkpt>
      <trkpt lat="46.871207" lon="15.78322">
        <ele>345.095837</ele>
        <time>2024-05-11T10:30:36.000Z</time>
      </trkpt>
      <trkpt lat="46.871345" lon="15.783436">
        <ele>346.558178</ele>
        <time>2024-05-11T10:30:38.000Z</time>
      </trkpt>
      <trkpt lat="46.871435" lon="15.783675">
        <ele>347.988692</ele>
        <time>2024-05-11T10:30:40.000Z</time>
      </trkpt>
      <trkpt lat="46.871518" lon="15.783949">
        <ele>349.405327</ele>
        <time>2024-05-11T10:30:42.000Z</time>
      </trkpt>
      <trkpt lat="46.871532" lon="15.784243">
        <ele>350.85452</ele>
        <time>2024-05-11T10:30:44.000Z</time>
      </trkpt>
      <trkpt lat="46.871474" lon="15.78455">
        <ele>352.512585</ele>
        <time>2024-05-11T10:30:46.000Z</time>
      </trkpt>
      <trkpt lat="46.871168" lon="15.785208">
        <ele>356.404492</ele>
        <time>2024-05-11T10:30:52.000Z</time>
      </trkpt>
      <trkpt lat="46.871153" lon="15.785485">
        <ele>357.571509</ele>
        <time>2024-05-11T10:30:54.000Z</time>
      </trkpt>
      <trkpt lat="46.871212" lon="15.785686">
        <ele>357.71006</ele>
        <time>2024-05-11T10:30:56.000Z</time>
      </trkpt>
      <trkpt lat="46.871262" lon="15.785936">
        <ele>357.871233</ele>
        <time>2024-05-11T10:30:58.000Z</time>
      </trkpt>
      <trkpt lat="46.87137" lon="15.786255">
        <ele>358.093182</ele>
        <time>2024-05-11T10:31:01.000Z</time>
      </trkpt>
      <trkpt lat="46.871433" lon="15.786353">
        <ele>358.172628</ele>
        <time>2024-05-11T10:31:02.000Z</time>
      </trkpt>
      <trkpt lat="46.871582" lon="15.786465">
        <ele>358.319324</ele>
        <time>2024-05-11T10:31:04.000Z</time>
      </trkpt>
      <trkpt lat="46.872058" lon="15.78676">
        <ele>358.795207</ele>
        <time>2024-05-11T10:31:10.000Z</time>
      </trkpt>
      <trkpt lat="46.872472" lon="15.787084">
        <ele>359.241004</ele>
        <time>2024-05-11T10:31:15.000Z</time>
      </trkpt>
      <trkpt lat="46.872607" lon="15.787165">
        <ele>359.421492</ele>
        <time>2024-05-11T10:31:17.000Z</time>
      </trkpt>
      <trkpt lat="46.872732" lon="15.787224">
        <ele>359.598737</ele>
        <time>2024-05-11T10:31:18.000Z</time>
      </trkpt>
      <trkpt lat="46.87298" lon="15.787343">
        <ele>359.935909</ele>
        <time>2024-05-11T10:31:21.000Z</time>
      </trkpt>
      <trkpt lat="46.873056" lon="15.787409">
        <ele>360.054885</ele>
        <time>2024-05-11T10:31:22.000Z</time>
      </trkpt>
      <trkpt lat="46.873446" lon="15.787917">
        <ele>360.722524</ele>
        <time>2024-05-11T10:31:28.000Z</time>
      </trkpt>
      <trkpt lat="46.873598" lon="15.788069">
        <ele>360.963901</ele>
        <time>2024-05-11T10:31:30.000Z</time>
      </trkpt>
      <trkpt lat="46.873675" lon="15.788148">
        <ele>361.077797</ele>
        <time>2024-05-11T10:31:31.000Z</time>
      </trkpt>
      <trkpt lat="46.873698" lon="15.788184">
        <ele>361.132903</ele>
        <time>2024-05-11T10:31:31.000Z</time>
      </trkpt>
      <trkpt lat="46.873943" lon="15.788431">
        <ele>361.512834</ele>
        <time>2024-05-11T10:31:34.000Z</time>
      </trkpt>
      <trkpt lat="46.874342" lon="15.788829">
        <ele>361.294479</ele>
        <time>2024-05-11T10:31:39.000Z</time>
      </trkpt>
      <trkpt lat="46.875206" lon="15.789412">
        <ele>360.845772</ele>
        <time>2024-05-11T10:31:50.000Z</time>
      </trkpt>
      <trkpt lat="46.875339" lon="15.789576">
        <ele>360.765187</ele>
        <time>2024-05-11T10:31:52.000Z</time>
      </trkpt>
      <trkpt lat="46.875495" lon="15.789863">
        <ele>360.569308</ele>
        <time>2024-05-11T10:31:55.000Z</time>
      </trkpt>
      <trkpt lat="46.875891" lon="15.790616">
        <ele>359.279718</ele>
        <time>2024-05-11T10:32:02.000Z</time>
      </trkpt>
      <trkpt lat="46.875993" lon="15.790926">
        <ele>358.824892</ele>
        <time>2024-05-11T10:32:05.000Z</time>
      </trkpt>
      <trkpt lat="46.876063" lon="15.791233">
        <ele>358.397042</ele>
        <time>2024-05-11T10:32:07.000Z</time>
      </trkpt>
      <trkpt lat="46.876077" lon="15.791307">
        <ele>358.281952</ele>
        <time>2024-05-11T10:32:08.000Z</time>
      </trkpt>
      <trkpt lat="46.876094" lon="15.791715">
        <ele>357.730576</ele>
        <time>2024-05-11T10:32:11.000Z</time>
      </trkpt>
      <trkpt lat="46.876096" lon="15.792127">
        <ele>357.176144</ele>
        <time>2024-05-11T10:32:14.000Z</time>
      </trkpt>
      <trkpt lat="46.876144" lon="15.792267">
        <ele>356.946092</ele>
        <time>2024-05-11T10:32:15.000Z</time>
      </trkpt>
      <trkpt lat="46.876196" lon="15.792289">
        <ele>356.854155</ele>
        <time>2024-05-11T10:32:16.000Z</time>
      </trkpt>
      <trkpt lat="46.876297" lon="15.792286">
        <ele>356.619761</ele>
        <time>2024-05-11T10:32:17.000Z</time>
      </trkpt>
      <trkpt lat="46.876577" lon="15.792164">
        <ele>356.010005</ele>
        <time>2024-05-11T10:32:20.000Z</time>
      </trkpt>
      <trkpt lat="46.876726" lon="15.792172">
        <ele>355.692428</ele>
        <time>2024-05-11T10:32:22.000Z</time>
      </trkpt>
      <trkpt lat="46.876842" lon="15.792234">
        <ele>355.414923</ele>
        <time>2024-05-11T10:32:23.000Z</time>
      </trkpt>
      <trkpt lat="46.876951" lon="15.792373">
        <ele>355.11433</ele>
        <time>2024-05-11T10:32:25.000Z</time>
      </trkpt>
      <trkpt lat="46.877009" lon="15.792517">
        <ele>354.873019</ele>
        <time>2024-05-11T10:32:26.000Z</time>
      </trkpt>
      <trkpt lat="46.877338" lon="15.793864">
        <ele>352.803748</ele>
        <time>2024-05-11T10:32:37.000Z</time>
      </trkpt>
      <trkpt lat="46.877513" lon="15.794272">
        <ele>352.161859</ele>
        <time>2024-05-11T10:32:41.000Z</time>
      </trkpt>
      <trkpt lat="46.87753" lon="15.794339">
        <ele>352.035921</ele>
        <time>2024-05-11T10:32:42.000Z</time>
      </trkpt>
      <trkpt lat="46.877644" lon="15.794668">
        <ele>351.545439</ele>
        <time>2024-05-11T10:32:45.000Z</time>
      </trkpt>
      <trkpt lat="46.877665" lon="15.794952">
        <ele>351.136159</ele>
        <time>2024-05-11T10:32:47.000Z</time>
      </trkpt>
      <trkpt lat="46.877656" lon="15.795225">
        <ele>350.765115</ele>
        <time>2024-05-11T10:32:49.000Z</time>
      </trkpt>
      <trkpt lat="46.877626" lon="15.795538">
        <ele>350.339699</ele>
        <time>2024-05-11T10:32:51.000Z</time>
      </trkpt>
      <trkpt lat="46.877534" lon="15.795861">
        <ele>349.848899</ele>
        <time>2024-05-11T10:32:54.000Z</time>
      </trkpt>
      <trkpt lat="46.877489" lon="15.795968">
        <ele>349.666558</ele>
        <time>2024-05-11T10:32:55.000Z</time>
      </trkpt>
      <trkpt lat="46.877492" lon="15.796091">
        <ele>349.490568</ele>
        <time>2024-05-11T10:32:56.000Z</time>
      </trkpt>
      <trkpt lat="46.877415" lon="15.796511">
        <ele>348.78722</ele>
        <time>2024-05-11T10:32:59.000Z</time>
      </trkpt>
      <trkpt lat="46.877307" lon="15.796787">
        <ele>348.27935</ele>
        <time>2024-05-11T10:33:01.000Z</time>
      </trkpt>
      <trkpt lat="46.877243" lon="15.79687">
        <ele>348.091428</ele>
        <time>2024-05-11T10:33:02.000Z</time>
      </trkpt>
      <trkpt lat="46.877085" lon="15.79768">
        <ele>346.76193</ele>
        <time>2024-05-11T10:33:08.000Z</time>
      </trkpt>
      <trkpt lat="46.876919" lon="15.798353">
        <ele>345.601461</ele>
        <time>2024-05-11T10:33:13.000Z</time>
      </trkpt>
      <trkpt lat="46.876752" lon="15.798894">
        <ele>345.152488</ele>
        <time>2024-05-11T10:33:18.000Z</time>
      </trkpt>
      <trkpt lat="46.876667" lon="15.799175">
        <ele>344.953945</ele>
        <time>2024-05-11T10:33:20.000Z</time>
      </trkpt>
      <trkpt lat="46.876364" lon="15.799942">
        <ele>344.39177</ele>
        <time>2024-05-11T10:33:27.000Z</time>
      </trkpt>
      <trkpt lat="46.876009" lon="15.800878">
        <ele>343.580081</ele>
        <time>2024-05-11T10:33:35.000Z</time>
      </trkpt>
      <trkpt lat="46.875601" lon="15.801557">
        <ele>342.197524</ele>
        <time>2024-05-11T10:33:42.000Z</time>
      </trkpt>
      <trkpt lat="46.875528" lon="15.801744">
        <ele>341.841948</ele>
        <time>2024-05-11T10:33:44.000Z</time>
      </trkpt>
      <trkpt lat="46.875446" lon="15.802194">
        <ele>341.138564</ele>
        <time>2024-05-11T10:33:48.000Z</time>
      </trkpt>
      <trkpt lat="46.875374" lon="15.80313">
        <ele>339.62431</ele>
        <time>2024-05-11T10:33:55.000Z</time>
      </trkpt>
      <trkpt lat="46.875063" lon="15.805341">
        <ele>331.942886</ele>
        <time>2024-05-11T10:34:12.000Z</time>
      </trkpt>
      <trkpt lat="46.875042" lon="15.805596">
        <ele>331.075374</ele>
        <time>2024-05-11T10:34:14.000Z</time>
      </trkpt>
      <trkpt lat="46.875072" lon="15.806148">
        <ele>329.425306</ele>
        <time>2024-05-11T10:34:18.000Z</time>
      </trkpt>
      <trkpt lat="46.875107" lon="15.807331">
        <ele>326.063695</ele>
        <time>2024-05-11T10:34:27.000Z</time>
      </trkpt>
      <trkpt lat="46.875189" lon="15.808025">
        <ele>324.075345</ele>
        <time>2024-05-11T10:34:32.000Z</time>
      </trkpt>
      <trkpt lat="46.875306" lon="15.808377">
        <ele>323.54125</ele>
        <time>2024-05-11T10:34:35.000Z</time>
      </trkpt>
      <trkpt lat="46.875474" lon="15.808722">
        <ele>324.458404</ele>
        <time>2024-05-11T10:34:38.000Z</time>
      </trkpt>
      <trkpt lat="46.875539" lon="15.808934">
        <ele>324.945408</ele>
        <time>2024-05-11T10:34:40.000Z</time>
      </trkpt>
      <trkpt lat="46.875569" lon="15.809507">
        <ele>326.192252</ele>
        <time>2024-05-11T10:34:44.000Z</time>
      </trkpt>
      <trkpt lat="46.875664" lon="15.81007">
        <ele>327.436461</ele>
        <time>2024-05-11T10:34:48.000Z</time>
      </trkpt>
      <trkpt lat="46.875799" lon="15.810504">
        <ele>328.438772</ele>
        <time>2024-05-11T10:34:52.000Z</time>
      </trkpt>
      <trkpt lat="46.875807" lon="15.810688">
        <ele>328.814585</ele>
        <time>2024-05-11T10:34:53.000Z</time>
      </trkpt>
      <trkpt lat="46.875679" lon="15.812126">
        <ele>331.992421</ele>
        <time>2024-05-11T10:35:04.000Z</time>
      </trkpt>
      <trkpt lat="46.875668" lon="15.813339">
        <ele>334.67009</ele>
        <time>2024-05-11T10:35:13.000Z</time>
      </trkpt>
      <trkpt lat="46.875615" lon="15.813631">
        <ele>333.286621</ele>
        <time>2024-05-11T10:35:15.000Z</time>
      </trkpt>
      <trkpt lat="46.875408" lon="15.814251">
        <ele>329.941039</ele>
        <time>2024-05-11T10:35:20.000Z</time>
      </trkpt>
      <trkpt lat="46.875384" lon="15.814245">
        <ele>329.740766</ele>
        <time>2024-05-11T10:35:20.000Z</time>
      </trkpt>
      <trkpt lat="46.875339" lon="15.814669">
        <ele>327.642585</ele>
        <time>2024-05-11T10:35:23.000Z</time>
      </trkpt>
      <trkpt lat="46.875192" lon="15.817241">
        <ele>309.80376</ele>
        <time>2024-05-11T10:35:43.000Z</time>
      </trkpt>
      <trkpt lat="46.875114" lon="15.818473">
        <ele>298.914758</ele>
        <time>2024-05-11T10:35:52.000Z</time>
      </trkpt>
      <trkpt lat="46.87504" lon="15.819195">
        <ele>294.627672</ele>
        <time>2024-05-11T10:35:58.000Z</time>
      </trkpt>
      <trkpt lat="46.874776" lon="15.820539">
        <ele>286.488673</ele>
        <time>2024-05-11T10:36:09.000Z</time>
      </trkpt>
      <trkpt lat="46.874694" lon="15.820905">
        <ele>284.315987</ele>
        <time>2024-05-11T10:36:12.000Z</time>
      </trkpt>
      <trkpt lat="46.874593" lon="15.821162">
        <ele>283.449805</ele>
        <time>2024-05-11T10:36:14.000Z</time>
      </trkpt>
      <trkpt lat="46.874482" lon="15.821389">
        <ele>283.205661</ele>
        <time>2024-05-11T10:36:16.000Z</time>
      </trkpt>
      <trkpt lat="46.874425" lon="15.821411">
        <ele>283.144964</ele>
        <time>2024-05-11T10:36:17.000Z</time>
      </trkpt>
      <trkpt lat="46.874348" lon="15.821465">
        <ele>283.0414</ele>
        <time>2024-05-11T10:36:18.000Z</time>
      </trkpt>
      <trkpt lat="46.873373" lon="15.822089">
        <ele>281.688014</ele>
        <time>2024-05-11T10:36:30.000Z</time>
      </trkpt>
      <trkpt lat="46.872953" lon="15.822468">
        <ele>281.107702</ele>
        <time>2024-05-11T10:36:35.000Z</time>
      </trkpt>
      <trkpt lat="46.872528" lon="15.823033">
        <ele>280.488275</ele>
        <time>2024-05-11T10:36:41.000Z</time>
      </trkpt>
      <trkpt lat="46.872188" lon="15.823637">
        <ele>279.91105</ele>
        <time>2024-05-11T10:36:47.000Z</time>
      </trkpt>
      <trkpt lat="46.871881" lon="15.823992">
        <ele>279.4967</ele>
        <time>2024-05-11T10:36:51.000Z</time>
      </trkpt>
      <trkpt lat="46.871242" lon="15.824647">
        <ele>277.904296</ele>
        <time>2024-05-11T10:37:00.000Z</time>
      </trkpt>
      <trkpt lat="46.871026" lon="15.824841">
        <ele>277.366545</ele>
        <time>2024-05-11T10:37:03.000Z</time>
      </trkpt>
      <trkpt lat="46.87067" lon="15.825103">
        <ele>276.472935</ele>
        <time>2024-05-11T10:37:07.000Z</time>
      </trkpt>
      <trkpt lat="46.870515" lon="15.825198">
        <ele>276.136695</ele>
        <time>2024-05-11T10:37:09.000Z</time>
      </trkpt>
      <trkpt lat="46.870436" lon="15.825207">
        <ele>275.954022</ele>
        <time>2024-05-11T10:37:10.000Z</time>
      </trkpt>
      <trkpt lat="46.870366" lon="15.825183">
        <ele>275.806197</ele>
        <time>2024-05-11T10:37:11.000Z</time>
      </trkpt>
      <trkpt lat="46.870361" lon="15.825119">
        <ele>275.699606</ele>
        <time>2024-05-11T10:37:11.000Z</time>
      </trkpt>
      <trkpt lat="46.870329" lon="15.825099">
        <ele>275.631452</ele>
        <time>2024-05-11T10:37:11.000Z</time>
      </trkpt>
      <trkpt lat="46.87026" lon="15.825043">
        <ele>275.491904</ele>
        <time>2024-05-11T10:37:12.000Z</time>
      </trkpt>
      <trkpt lat="46.870076" lon="15.824984">
        <ele>275.364796</ele>
        <time>2024-05-11T10:37:14.000Z</time>
      </trkpt>
      <trkpt lat="46.869734" lon="15.824815">
        <ele>275.109268</ele>
        <time>2024-05-11T10:37:18.000Z</time>
      </trkpt>
      <trkpt lat="46.869509" lon="15.82474">
        <ele>274.937974</ele>
        <time>2024-05-11T10:37:21.000Z</time>
      </trkpt>
      <trkpt lat="46.869311" lon="15.824656">
        <ele>274.787212</ele>
        <time>2024-05-11T10:37:23.000Z</time>
      </trkpt>
      <trkpt lat="46.868149" lon="15.824221">
        <ele>274.375506</ele>
        <time>2024-05-11T10:37:36.000Z</time>
      </trkpt>
      <trkpt lat="46.867798" lon="15.824157">
        <ele>274.499829</ele>
        <time>2024-05-11T10:37:40.000Z</time>
      </trkpt>
      <trkpt lat="46.867445" lon="15.824157">
        <ele>274.623437</ele>
        <time>2024-05-11T10:37:44.000Z</time>
      </trkpt>
      <trkpt lat="46.866875" lon="15.824317">
        <ele>274.833792</ele>
        <time>2024-05-11T10:37:50.000Z</time>
      </trkpt>
      <trkpt lat="46.866511" lon="15.82438">
        <ele>274.741853</ele>
        <time>2024-05-11T10:37:54.000Z</time>
      </trkpt>
      <trkpt lat="46.865464" lon="15.824421">
        <ele>274.250414</ele>
        <time>2024-05-11T10:38:06.000Z</time>
      </trkpt>
      <trkpt lat="46.864286" lon="15.824355">
        <ele>273.525777</ele>
        <time>2024-05-11T10:38:19.000Z</time>
      </trkpt>
      <trkpt lat="46.863618" lon="15.824259">
        <ele>273.042277</ele>
        <time>2024-05-11T10:38:26.000Z</time>
      </trkpt>
      <trkpt lat="46.862698" lon="15.8239">
        <ele>272.470369</ele>
        <time>2024-05-11T10:38:37.000Z</time>
      </trkpt>
      <trkpt lat="46.861995" lon="15.823644">
        <ele>272.098197</ele>
        <time>2024-05-11T10:38:45.000Z</time>
      </trkpt>
      <trkpt lat="46.861226" lon="15.823587">
        <ele>271.798248</ele>
        <time>2024-05-11T10:38:54.000Z</time>
      </trkpt>
      <trkpt lat="46.861008" lon="15.823511">
        <ele>271.791743</ele>
        <time>2024-05-11T10:38:56.000Z</time>
      </trkpt>
      <trkpt lat="46.860885" lon="15.823453">
        <ele>271.787251</ele>
        <time>2024-05-11T10:38:57.000Z</time>
      </trkpt>
      <trkpt lat="46.860861" lon="15.823512">
        <ele>271.785912</ele>
        <time>2024-05-11T10:38:58.000Z</time>
      </trkpt>
      <trkpt lat="46.860342" lon="15.823198">
        <ele>271.769309</ele>
        <time>2024-05-11T10:39:04.000Z</time>
      </trkpt>
      <trkpt lat="46.859826" lon="15.822944">
        <ele>271.75261</ele>
        <time>2024-05-11T10:39:10.000Z</time>
      </trkpt>
      <trkpt lat="46.859419" lon="15.822826">
        <ele>271.880815</ele>
        <time>2024-05-11T10:39:15.000Z</time>
      </trkpt>
      <trkpt lat="46.858971" lon="15.822749">
        <ele>272.057549</ele>
        <time>2024-05-11T10:39:20.000Z</time>
      </trkpt>
      <trkpt lat="46.857575" lon="15.822742">
        <ele>272.329913</ele>
        <time>2024-05-11T10:39:36.000Z</time>
      </trkpt>
      <trkpt lat="46.85695" lon="15.822679">
        <ele>272.14745</ele>
        <time>2024-05-11T10:39:43.000Z</time>
      </trkpt>
      <trkpt lat="46.856149" lon="15.822474">
        <ele>271.907403</ele>
        <time>2024-05-11T10:39:52.000Z</time>
      </trkpt>
      <trkpt lat="46.855631" lon="15.822433">
        <ele>271.688557</ele>
        <time>2024-05-11T10:39:58.000Z</time>
      </trkpt>
      <trkpt lat="46.854579" lon="15.822573">
        <ele>271.246124</ele>
        <time>2024-05-11T10:40:10.000Z</time>
      </trkpt>
      <trkpt lat="46.854155" lon="15.822649">
        <ele>271.316781</ele>
        <time>2024-05-11T10:40:15.000Z</time>
      </trkpt>
      <trkpt lat="46.854046" lon="15.82267">
        <ele>271.401029</ele>
        <time>2024-05-11T10:40:16.000Z</time>
      </trkpt>
      <trkpt lat="46.853773" lon="15.822805">
        <ele>271.600829</ele>
        <time>2024-05-11T10:40:19.000Z</time>
      </trkpt>
      <trkpt lat="46.85286" lon="15.823517">
        <ele>272.316334</ele>
        <time>2024-05-11T10:40:31.000Z</time>
      </trkpt>
      <trkpt lat="46.852478" lon="15.823725">
        <ele>272.332881</ele>
        <time>2024-05-11T10:40:36.000Z</time>
      </trkpt>
      <trkpt lat="46.852236" lon="15.823746">
        <ele>272.270814</ele>
        <time>2024-05-11T10:40:39.000Z</time>
      </trkpt>
      <trkpt lat="46.851806" lon="15.823703">
        <ele>272.152933</ele>
        <time>2024-05-11T10:40:44.000Z</time>
      </trkpt>
      <trkpt lat="46.850928" lon="15.823695">
        <ele>271.923432</ele>
        <time>2024-05-11T10:40:54.000Z</time>
      </trkpt>
      <trkpt lat="46.85061" lon="15.823569">
        <ele>271.915018</ele>
        <time>2024-05-11T10:40:58.000Z</time>
      </trkpt>
      <trkpt lat="46.850451" lon="15.823462">
        <ele>271.910468</ele>
        <time>2024-05-11T10:41:00.000Z</time>
      </trkpt>
      <trkpt lat="46.850244" lon="15.823251">
        <ele>271.904187</ele>
        <time>2024-05-11T10:41:03.000Z</time>
      </trkpt>
      <trkpt lat="46.850062" lon="15.822972">
        <ele>271.89756</ele>
        <time>2024-05-11T10:41:06.000Z</time>
      </trkpt>
      <trkpt lat="46.849929" lon="15.822656">
        <ele>271.891059</ele>
        <time>2024-05-11T10:41:09.000Z</time>
      </trkpt>
      <trkpt lat="46.849775" lon="15.82214">
        <ele>271.881379</ele>
        <time>2024-05-11T10:41:13.000Z</time>
      </trkpt>
      <trkpt lat="46.849616" lon="15.821783">
        <ele>271.992507</ele>
        <time>2024-05-11T10:41:16.000Z</time>
      </trkpt>
      <trkpt lat="46.849541" lon="15.821645">
        <ele>272.080376</ele>
        <time>2024-05-11T10:41:17.000Z</time>
      </trkpt>
      <trkpt lat="46.849414" lon="15.821509">
        <ele>272.191608</ele>
        <time>2024-05-11T10:41:19.000Z</time>
      </trkpt>
      <trkpt lat="46.849248" lon="15.821399">
        <ele>272.311412</ele>
        <time>2024-05-11T10:41:21.000Z</time>
      </trkpt>
      <trkpt lat="46.849061" lon="15.821336">
        <ele>272.447883</ele>
        <time>2024-05-11T10:41:23.000Z</time>
      </trkpt>
      <trkpt lat="46.848982" lon="15.821312">
        <ele>272.506399</ele>
        <time>2024-05-11T10:41:24.000Z</time>
      </trkpt>
      <trkpt lat="46.848736" lon="15.821344">
        <ele>272.678945</ele>
        <time>2024-05-11T10:41:27.000Z</time>
      </trkpt>
      <trkpt lat="46.848599" lon="15.821407">
        <ele>272.776141</ele>
        <time>2024-05-11T10:41:29.000Z</time>
      </trkpt>
      <trkpt lat="46.848097" lon="15.821839">
        <ele>273.063756</ele>
        <time>2024-05-11T10:41:35.000Z</time>
      </trkpt>
      <trkpt lat="46.847695" lon="15.822158">
        <ele>272.755379</ele>
        <time>2024-05-11T10:41:40.000Z</time>
      </trkpt>
      <trkpt lat="46.847595" lon="15.8222">
        <ele>272.685002</ele>
        <time>2024-05-11T10:41:41.000Z</time>
      </trkpt>
      <trkpt lat="46.847461" lon="15.822263">
        <ele>272.593269</ele>
        <time>2024-05-11T10:41:43.000Z</time>
      </trkpt>
      <trkpt lat="46.846791" lon="15.822426">
        <ele>272.135557</ele>
        <time>2024-05-11T10:41:51.000Z</time>
      </trkpt>
      <trkpt lat="46.846602" lon="15.82246">
        <ele>272.00514</ele>
        <time>2024-05-11T10:41:53.000Z</time>
      </trkpt>
      <trkpt lat="46.846132" lon="15.822554">
        <ele>271.608192</ele>
        <time>2024-05-11T10:41:58.000Z</time>
      </trkpt>
      <trkpt lat="46.845808" lon="15.822531">
        <ele>271.327921</ele>
        <time>2024-05-11T10:42:02.000Z</time>
      </trkpt>
      <trkpt lat="46.845497" lon="15.822417">
        <ele>271.036632</ele>
        <time>2024-05-11T10:42:06.000Z</time>
      </trkpt>
      <trkpt lat="46.8453" lon="15.8223">
        <ele>270.845646</ele>
        <time>2024-05-11T10:42:08.000Z</time>
      </trkpt>
      <trkpt lat="46.845056" lon="15.822104">
        <ele>270.603073</ele>
        <time>2024-05-11T10:42:11.000Z</time>
      </trkpt>
      <trkpt lat="46.844654" lon="15.821765">
        <ele>270.132338</ele>
        <time>2024-05-11T10:42:16.000Z</time>
      </trkpt>
      <trkpt lat="46.844487" lon="15.82167">
        <ele>269.87436</ele>
        <time>2024-05-11T10:42:18.000Z</time>
      </trkpt>
      <trkpt lat="46.844378" lon="15.821675">
        <ele>269.74132</ele>
        <time>2024-05-11T10:42:19.000Z</time>
      </trkpt>
      <trkpt lat="46.844253" lon="15.821711">
        <ele>269.568301</ele>
        <time>2024-05-11T10:42:20.000Z</time>
      </trkpt>
      <trkpt lat="46.844158" lon="15.821783">
        <ele>269.410251</ele>
        <time>2024-05-11T10:42:21.000Z</time>
      </trkpt>
      <trkpt lat="46.843975" lon="15.8221">
        <ele>269.017627</ele>
        <time>2024-05-11T10:42:24.000Z</time>
      </trkpt>
      <trkpt lat="46.843918" lon="15.822201">
        <ele>268.905205</ele>
        <time>2024-05-11T10:42:25.000Z</time>
      </trkpt>
      <trkpt lat="46.843888" lon="15.822253">
        <ele>268.825379</ele>
        <time>2024-05-11T10:42:26.000Z</time>
      </trkpt>
      <trkpt lat="46.843803" lon="15.822364">
        <ele>268.690558</ele>
        <time>2024-05-11T10:42:27.000Z</time>
      </trkpt>
      <trkpt lat="46.843665" lon="15.822576">
        <ele>268.394296</ele>
        <time>2024-05-11T10:42:29.000Z</time>
      </trkpt>
      <trkpt lat="46.843407" lon="15.822923">
        <ele>267.929091</ele>
        <time>2024-05-11T10:42:33.000Z</time>
      </trkpt>
      <trkpt lat="46.843377" lon="15.822961">
        <ele>267.87699</ele>
        <time>2024-05-11T10:42:33.000Z</time>
      </trkpt>
      <trkpt lat="46.843261" lon="15.823115">
        <ele>267.691155</ele>
        <time>2024-05-11T10:42:35.000Z</time>
      </trkpt>
      <trkpt lat="46.843" lon="15.823388">
        <ele>267.361799</ele>
        <time>2024-05-11T10:42:39.000Z</time>
      </trkpt>
      <trkpt lat="46.84293" lon="15.823462">
        <ele>267.264596</ele>
        <time>2024-05-11T10:42:40.000Z</time>
      </trkpt>
      <trkpt lat="46.842902" lon="15.823479">
        <ele>267.223112</ele>
        <time>2024-05-11T10:42:40.000Z</time>
      </trkpt>
      <trkpt lat="46.842677" lon="15.823601">
        <ele>266.979441</ele>
        <time>2024-05-11T10:42:43.000Z</time>
      </trkpt>
      <trkpt lat="46.842631" lon="15.823638">
        <ele>266.918344</ele>
        <time>2024-05-11T10:42:44.000Z</time>
      </trkpt>
      <trkpt lat="46.842208" lon="15.823904">
        <ele>266.419927</ele>
        <time>2024-05-11T10:42:49.000Z</time>
      </trkpt>
      <trkpt lat="46.842007" lon="15.82421">
        <ele>266.117182</ele>
        <time>2024-05-11T10:42:52.000Z</time>
      </trkpt>
      <trkpt lat="46.841952" lon="15.824372">
        <ele>265.985981</ele>
        <time>2024-05-11T10:42:53.000Z</time>
      </trkpt>
      <trkpt lat="46.841815" lon="15.824587">
        <ele>265.835973</ele>
        <time>2024-05-11T10:42:55.000Z</time>
      </trkpt>
      <trkpt lat="46.841751" lon="15.82465">
        <ele>265.786545</ele>
        <time>2024-05-11T10:42:56.000Z</time>
      </trkpt>
      <trkpt lat="46.841681" lon="15.824713">
        <ele>265.737707</ele>
        <time>2024-05-11T10:42:57.000Z</time>
      </trkpt>
      <trkpt lat="46.841543" lon="15.824767">
        <ele>265.644598</ele>
        <time>2024-05-11T10:42:59.000Z</time>
      </trkpt>
      <trkpt lat="46.841164" lon="15.824707">
        <ele>265.41293</ele>
        <time>2024-05-11T10:43:03.000Z</time>
      </trkpt>
      <trkpt lat="46.840964" lon="15.824638">
        <ele>265.285209</ele>
        <time>2024-05-11T10:43:05.000Z</time>
      </trkpt>
      <trkpt lat="46.840175" lon="15.824261">
        <ele>264.796776</ele>
        <time>2024-05-11T10:43:14.000Z</time>
      </trkpt>
      <trkpt lat="46.839679" lon="15.824076">
        <ele>264.645832</ele>
        <time>2024-05-11T10:43:20.000Z</time>
      </trkpt>
      <trkpt lat="46.83819" lon="15.823592">
        <ele>264.282113</ele>
        <time>2024-05-11T10:43:37.000Z</time>
      </trkpt>
      <trkpt lat="46.837558" lon="15.823283">
        <ele>264.266619</ele>
        <time>2024-05-11T10:43:44.000Z</time>
      </trkpt>
      <trkpt lat="46.837267" lon="15.82311">
        <ele>264.259347</ele>
        <time>2024-05-11T10:43:47.000Z</time>
      </trkpt>
      <trkpt lat="46.836916" lon="15.822953">
        <ele>264.250897</ele>
        <time>2024-05-11T10:43:51.000Z</time>
      </trkpt>
      <trkpt lat="46.836333" lon="15.822844">
        <ele>264.454519</ele>
        <time>2024-05-11T10:43:58.000Z</time>
      </trkpt>
      <trkpt lat="46.836022" lon="15.822695">
        <ele>264.617656</ele>
        <time>2024-05-11T10:44:02.000Z</time>
      </trkpt>
      <trkpt lat="46.835736" lon="15.822542">
        <ele>264.766131</ele>
        <time>2024-05-11T10:44:05.000Z</time>
      </trkpt>
      <trkpt lat="46.835479" lon="15.822446">
        <ele>264.893296</ele>
        <time>2024-05-11T10:44:08.000Z</time>
      </trkpt>
      <trkpt lat="46.834879" lon="15.822455">
        <ele>265.116345</ele>
        <time>2024-05-11T10:44:15.000Z</time>
      </trkpt>
      <trkpt lat="46.834354" lon="15.822411">
        <ele>265.09475</ele>
        <time>2024-05-11T10:44:21.000Z</time>
      </trkpt>
      <trkpt lat="46.833731" lon="15.822209">
        <ele>265.068848</ele>
        <time>2024-05-11T10:44:28.000Z</time>
      </trkpt>
      <trkpt lat="46.833681" lon="15.822197">
        <ele>265.066864</ele>
        <time>2024-05-11T10:44:29.000Z</time>
      </trkpt>
      <trkpt lat="46.832736" lon="15.821784">
        <ele>264.918229</ele>
        <time>2024-05-11T10:44:40.000Z</time>
      </trkpt>
      <trkpt lat="46.832485" lon="15.821632">
        <ele>264.847443</ele>
        <time>2024-05-11T10:44:43.000Z</time>
      </trkpt>
      <trkpt lat="46.832307" lon="15.821553">
        <ele>264.802856</ele>
        <time>2024-05-11T10:44:45.000Z</time>
      </trkpt>
      <trkpt lat="46.831824" lon="15.821195">
        <ele>264.669523</ele>
        <time>2024-05-11T10:44:51.000Z</time>
      </trkpt>
      <trkpt lat="46.831682" lon="15.821075">
        <ele>264.628183</ele>
        <time>2024-05-11T10:44:53.000Z</time>
      </trkpt>
      <trkpt lat="46.831318" lon="15.820836">
        <ele>264.489158</ele>
        <time>2024-05-11T10:44:57.000Z</time>
      </trkpt>
      <trkpt lat="46.831221" lon="15.820801">
        <ele>264.454703</ele>
        <time>2024-05-11T10:44:58.000Z</time>
      </trkpt>
      <trkpt lat="46.830945" lon="15.82068">
        <ele>264.342501</ele>
        <time>2024-05-11T10:45:01.000Z</time>
      </trkpt>
      <trkpt lat="46.830852" lon="15.820631">
        <ele>264.306862</ele>
        <time>2024-05-11T10:45:02.000Z</time>
      </trkpt>
      <trkpt lat="46.830379" lon="15.820501">
        <ele>264.128246</ele>
        <time>2024-05-11T10:45:07.000Z</time>
      </trkpt>
      <trkpt lat="46.829843" lon="15.82039">
        <ele>263.923085</ele>
        <time>2024-05-11T10:45:13.000Z</time>
      </trkpt>
      <trkpt lat="46.82957" lon="15.820362">
        <ele>263.886814</ele>
        <time>2024-05-11T10:45:16.000Z</time>
      </trkpt>
      <trkpt lat="46.828997" lon="15.8203">
        <ele>263.808231</ele>
        <time>2024-05-11T10:45:22.000Z</time>
      </trkpt>
      <trkpt lat="46.828399" lon="15.820144">
        <ele>263.724439</ele>
        <time>2024-05-11T10:45:29.000Z</time>
      </trkpt>
      <trkpt lat="46.827777" lon="15.819949">
        <ele>263.7612</ele>
        <time>2024-05-11T10:45:36.000Z</time>
      </trkpt>
      <trkpt lat="46.827367" lon="15.8199">
        <ele>263.87524</ele>
        <time>2024-05-11T10:45:41.000Z</time>
      </trkpt>
      <trkpt lat="46.827245" lon="15.819897">
        <ele>263.906509</ele>
        <time>2024-05-11T10:45:42.000Z</time>
      </trkpt>
      <trkpt lat="46.82649" lon="15.819867">
        <ele>264.112424</ele>
        <time>2024-05-11T10:45:50.000Z</time>
      </trkpt>
      <trkpt lat="46.826161" lon="15.81983">
        <ele>264.138543</ele>
        <time>2024-05-11T10:45:54.000Z</time>
      </trkpt>
      <trkpt lat="46.825941" lon="15.819848">
        <ele>264.080652</ele>
        <time>2024-05-11T10:45:56.000Z</time>
      </trkpt>
      <trkpt lat="46.8259" lon="15.819846">
        <ele>264.066254</ele>
        <time>2024-05-11T10:45:56.000Z</time>
      </trkpt>
      <trkpt lat="46.825562" lon="15.819867">
        <ele>263.980996</ele>
        <time>2024-05-11T10:46:00.000Z</time>
      </trkpt>
      <trkpt lat="46.825343" lon="15.819832">
        <ele>263.922663</ele>
        <time>2024-05-11T10:46:02.000Z</time>
      </trkpt>
      <trkpt lat="46.824826" lon="15.819602">
        <ele>263.778923</ele>
        <time>2024-05-11T10:46:08.000Z</time>
      </trkpt>
      <trkpt lat="46.824404" lon="15.819417">
        <ele>263.678823</ele>
        <time>2024-05-11T10:46:13.000Z</time>
      </trkpt>
      <trkpt lat="46.824321" lon="15.819366">
        <ele>263.665905</ele>
        <time>2024-05-11T10:46:14.000Z</time>
      </trkpt>
      <trkpt lat="46.824246" lon="15.81931">
        <ele>263.654158</ele>
        <time>2024-05-11T10:46:15.000Z</time>
      </trkpt>
      <trkpt lat="46.824163" lon="15.819257">
        <ele>263.640769</ele>
        <time>2024-05-11T10:46:16.000Z</time>
      </trkpt>
      <trkpt lat="46.823712" lon="15.818986">
        <ele>263.570778</ele>
        <time>2024-05-11T10:46:21.000Z</time>
      </trkpt>
      <trkpt lat="46.823564" lon="15.818926">
        <ele>263.549171</ele>
        <time>2024-05-11T10:46:23.000Z</time>
      </trkpt>
      <trkpt lat="46.823185" lon="15.818848">
        <ele>263.4945</ele>
        <time>2024-05-11T10:46:27.000Z</time>
      </trkpt>
      <trkpt lat="46.823043" lon="15.818825">
        <ele>263.474134</ele>
        <time>2024-05-11T10:46:29.000Z</time>
      </trkpt>
      <trkpt lat="46.822755" lon="15.818777">
        <ele>263.466303</ele>
        <time>2024-05-11T10:46:32.000Z</time>
      </trkpt>
      <trkpt lat="46.822367" lon="15.818723">
        <ele>263.679455</ele>
        <time>2024-05-11T10:46:36.000Z</time>
      </trkpt>
      <trkpt lat="46.821582" lon="15.818587">
        <ele>264.098136</ele>
        <time>2024-05-11T10:46:45.000Z</time>
      </trkpt>
      <trkpt lat="46.820916" lon="15.818451">
        <ele>264.549053</ele>
        <time>2024-05-11T10:46:52.000Z</time>
      </trkpt>
      <trkpt lat="46.820713" lon="15.818384">
        <ele>264.817394</ele>
        <time>2024-05-11T10:46:54.000Z</time>
      </trkpt>
      <trkpt lat="46.82036" lon="15.818205">
        <ele>265.3359</ele>
        <time>2024-05-11T10:46:58.000Z</time>
      </trkpt>
      <trkpt lat="46.819636" lon="15.817715">
        <ele>266.393755</ele>
        <time>2024-05-11T10:47:07.000Z</time>
      </trkpt>
      <trkpt lat="46.818911" lon="15.817169">
        <ele>267.891592</ele>
        <time>2024-05-11T10:47:16.000Z</time>
      </trkpt>
      <trkpt lat="46.818315" lon="15.816744">
        <ele>269.258667</ele>
        <time>2024-05-11T10:47:23.000Z</time>
      </trkpt>
      <trkpt lat="46.81811" lon="15.816576">
        <ele>269.767391</ele>
        <time>2024-05-11T10:47:26.000Z</time>
      </trkpt>
      <trkpt lat="46.817809" lon="15.816267">
        <ele>270.53162</ele>
        <time>2024-05-11T10:47:30.000Z</time>
      </trkpt>
      <trkpt lat="46.817333" lon="15.81571">
        <ele>271.835974</ele>
        <time>2024-05-11T10:47:37.000Z</time>
      </trkpt>
      <trkpt lat="46.816517" lon="15.814627">
        <ele>274.198404</ele>
        <time>2024-05-11T10:47:49.000Z</time>
      </trkpt>
      <trkpt lat="46.816099" lon="15.814219">
        <ele>274.818944</ele>
        <time>2024-05-11T10:47:55.000Z</time>
      </trkpt>
      <trkpt lat="46.815741" lon="15.813971">
        <ele>275.210626</ele>
        <time>2024-05-11T10:47:59.000Z</time>
      </trkpt>
      <trkpt lat="46.815372" lon="15.813813">
        <ele>275.587816</ele>
        <time>2024-05-11T10:48:03.000Z</time>
      </trkpt>
      <trkpt lat="46.815072" lon="15.813752">
        <ele>275.870421</ele>
        <time>2024-05-11T10:48:06.000Z</time>
      </trkpt>
      <trkpt lat="46.813885" lon="15.813699">
        <ele>276.248279</ele>
        <time>2024-05-11T10:48:19.000Z</time>
      </trkpt>
      <trkpt lat="46.813413" lon="15.813688">
        <ele>276.277254</ele>
        <time>2024-05-11T10:48:24.000Z</time>
      </trkpt>
      <trkpt lat="46.812664" lon="15.813654">
        <ele>276.23214</ele>
        <time>2024-05-11T10:48:32.000Z</time>
      </trkpt>
      <trkpt lat="46.812424" lon="15.813635">
        <ele>276.172143</ele>
        <time>2024-05-11T10:48:35.000Z</time>
      </trkpt>
      <trkpt lat="46.811596" lon="15.813484">
        <ele>275.962479</ele>
        <time>2024-05-11T10:48:44.000Z</time>
      </trkpt>
      <trkpt lat="46.811281" lon="15.813425">
        <ele>275.880102</ele>
        <time>2024-05-11T10:48:48.000Z</time>
      </trkpt>
      <trkpt lat="46.811272" lon="15.813425">
        <ele>275.877787</ele>
        <time>2024-05-11T10:48:48.000Z</time>
      </trkpt>
      <trkpt lat="46.810871" lon="15.813224">
        <ele>275.599896</ele>
        <time>2024-05-11T10:48:53.000Z</time>
      </trkpt>
      <trkpt lat="46.810268" lon="15.81281">
        <ele>275.077102</ele>
        <time>2024-05-11T10:49:00.000Z</time>
      </trkpt>
      <trkpt lat="46.810007" lon="15.812633">
        <ele>274.844252</ele>
        <time>2024-05-11T10:49:03.000Z</time>
      </trkpt>
      <trkpt lat="46.809756" lon="15.812449">
        <ele>274.609268</ele>
        <time>2024-05-11T10:49:06.000Z</time>
      </trkpt>
      <trkpt lat="46.809708" lon="15.812425">
        <ele>274.573939</ele>
        <time>2024-05-11T10:49:07.000Z</time>
      </trkpt>
      <trkpt lat="46.809547" lon="15.8123">
        <ele>274.421711</ele>
        <time>2024-05-11T10:49:09.000Z</time>
      </trkpt>
      <trkpt lat="46.809395" lon="15.8122">
        <ele>274.446069</ele>
        <time>2024-05-11T10:49:11.000Z</time>
      </trkpt>
      <trkpt lat="46.80927" lon="15.812178">
        <ele>274.479265</ele>
        <time>2024-05-11T10:49:12.000Z</time>
      </trkpt>
      <trkpt lat="46.809133" lon="15.812196">
        <ele>274.514878</ele>
        <time>2024-05-11T10:49:14.000Z</time>
      </trkpt>
      <trkpt lat="46.809046" lon="15.812242">
        <ele>274.540563</ele>
        <time>2024-05-11T10:49:15.000Z</time>
      </trkpt>
      <trkpt lat="46.808932" lon="15.812299">
        <ele>274.573418</ele>
        <time>2024-05-11T10:49:16.000Z</time>
      </trkpt>
      <trkpt lat="46.808429" lon="15.812817">
        <ele>274.738035</ele>
        <time>2024-05-11T10:49:23.000Z</time>
      </trkpt>
      <trkpt lat="46.807997" lon="15.813267">
        <ele>274.882573</ele>
        <time>2024-05-11T10:49:29.000Z</time>
      </trkpt>
      <trkpt lat="46.807791" lon="15.81354">
        <ele>274.545162</ele>
        <time>2024-05-11T10:49:32.000Z</time>
      </trkpt>
      <trkpt lat="46.807496" lon="15.81421">
        <ele>273.743758</ele>
        <time>2024-05-11T10:49:38.000Z</time>
      </trkpt>
      <trkpt lat="46.807292" lon="15.814625">
        <ele>273.251523</ele>
        <time>2024-05-11T10:49:42.000Z</time>
      </trkpt>
      <trkpt lat="46.807116" lon="15.814934">
        <ele>272.831597</ele>
        <time>2024-05-11T10:49:45.000Z</time>
      </trkpt>
      <trkpt lat="46.807055" lon="15.815028">
        <ele>272.709065</ele>
        <time>2024-05-11T10:49:46.000Z</time>
      </trkpt>
      <trkpt lat="46.80637" lon="15.815753">
        <ele>270.668343</ele>
        <time>2024-05-11T10:49:55.000Z</time>
      </trkpt>
      <trkpt lat="46.805547" lon="15.816581">
        <ele>267.659576</ele>
        <time>2024-05-11T10:50:06.000Z</time>
      </trkpt>
      <trkpt lat="46.805054" lon="15.81704">
        <ele>266.078119</ele>
        <time>2024-05-11T10:50:13.000Z</time>
      </trkpt>
      <trkpt lat="46.803911" lon="15.817897">
        <ele>262.809544</ele>
        <time>2024-05-11T10:50:27.000Z</time>
      </trkpt>
      <trkpt lat="46.80387" lon="15.817924">
        <ele>262.724752</ele>
        <time>2024-05-11T10:50:28.000Z</time>
      </trkpt>
      <trkpt lat="46.803583" lon="15.818096">
        <ele>262.106164</ele>
        <time>2024-05-11T10:50:31.000Z</time>
      </trkpt>
      <trkpt lat="46.803477" lon="15.81815">
        <ele>261.949701</ele>
        <time>2024-05-11T10:50:32.000Z</time>
      </trkpt>
      <trkpt lat="46.803453" lon="15.818152">
        <ele>261.892395</ele>
        <time>2024-05-11T10:50:32.000Z</time>
      </trkpt>
      <trkpt lat="46.802373" lon="15.818642">
        <ele>260.212477</ele>
        <time>2024-05-11T10:50:45.000Z</time>
      </trkpt>
      <trkpt lat="46.801817" lon="15.81878">
        <ele>259.460235</ele>
        <time>2024-05-11T10:50:51.000Z</time>
      </trkpt>
      <trkpt lat="46.80038" lon="15.819037">
        <ele>257.914748</ele>
        <time>2024-05-11T10:51:07.000Z</time>
      </trkpt>
      <trkpt lat="46.800095" lon="15.819096">
        <ele>257.457448</ele>
        <time>2024-05-11T10:51:10.000Z</time>
      </trkpt>
      <trkpt lat="46.799407" lon="15.819195">
        <ele>256.09775</ele>
        <time>2024-05-11T10:51:18.000Z</time>
      </trkpt>
      <trkpt lat="46.798704" lon="15.819322">
        <ele>254.700025</ele>
        <time>2024-05-11T10:51:26.000Z</time>
      </trkpt>
      <trkpt lat="46.798406" lon="15.819321">
        <ele>254.149454</ele>
        <time>2024-05-11T10:51:29.000Z</time>
      </trkpt>
      <trkpt lat="46.798137" lon="15.819267">
        <ele>253.811343</ele>
        <time>2024-05-11T10:51:32.000Z</time>
      </trkpt>
      <trkpt lat="46.797238" lon="15.818873">
        <ele>252.641896</ele>
        <time>2024-05-11T10:51:42.000Z</time>
      </trkpt>
      <trkpt lat="46.796989" lon="15.818822">
        <ele>252.32887</ele>
        <time>2024-05-11T10:51:45.000Z</time>
      </trkpt>
      <trkpt lat="46.796755" lon="15.818857">
        <ele>252.047428</ele>
        <time>2024-05-11T10:51:48.000Z</time>
      </trkpt>
      <trkpt lat="46.795833" lon="15.819283">
        <ele>252.112116</ele>
        <time>2024-05-11T10:51:59.000Z</time>
      </trkpt>
      <trkpt lat="46.795239" lon="15.819486">
        <ele>252.207475</ele>
        <time>2024-05-11T10:52:06.000Z</time>
      </trkpt>
      <trkpt lat="46.79485" lon="15.819584">
        <ele>252.191113</ele>
        <time>2024-05-11T10:52:10.000Z</time>
      </trkpt>
      <trkpt lat="46.794331" lon="15.819809">
        <ele>251.929326</ele>
        <time>2024-05-11T10:52:16.000Z</time>
      </trkpt>
      <trkpt lat="46.794017" lon="15.820082">
        <ele>251.751736</ele>
        <time>2024-05-11T10:52:20.000Z</time>
      </trkpt>
      <trkpt lat="46.793881" lon="15.820268">
        <ele>251.655305</ele>
        <time>2024-05-11T10:52:22.000Z</time>
      </trkpt>
      <trkpt lat="46.793335" lon="15.821111">
        <ele>251.083581</ele>
        <time>2024-05-11T10:52:31.000Z</time>
      </trkpt>
      <trkpt lat="46.793087" lon="15.821402">
        <ele>250.612613</ele>
        <time>2024-05-11T10:52:35.000Z</time>
      </trkpt>
      <trkpt lat="46.792089" lon="15.822285">
        <ele>248.956905</ele>
        <time>2024-05-11T10:52:48.000Z</time>
      </trkpt>
      <trkpt lat="46.790509" lon="15.823579">
        <ele>247.143075</ele>
        <time>2024-05-11T10:53:08.000Z</time>
      </trkpt>
      <trkpt lat="46.789929" lon="15.823991">
        <ele>246.767829</ele>
        <time>2024-05-11T10:53:15.000Z</time>
      </trkpt>
      <trkpt lat="46.789452" lon="15.824257">
        <ele>246.511426</ele>
        <time>2024-05-11T10:53:21.000Z</time>
      </trkpt>
      <trkpt lat="46.78857" lon="15.824633">
        <ele>246.060702</ele>
        <time>2024-05-11T10:53:31.000Z</time>
      </trkpt>
      <trkpt lat="46.788526" lon="15.824647">
        <ele>246.039603</ele>
        <time>2024-05-11T10:53:32.000Z</time>
      </trkpt>
      <trkpt lat="46.788368" lon="15.824714">
        <ele>245.97176</ele>
        <time>2024-05-11T10:53:34.000Z</time>
      </trkpt>
      <trkpt lat="46.787318" lon="15.824998">
        <ele>245.497897</ele>
        <time>2024-05-11T10:53:46.000Z</time>
      </trkpt>
      <trkpt lat="46.78731" lon="15.825074">
        <ele>245.472822</ele>
        <time>2024-05-11T10:53:47.000Z</time>
      </trkpt>
      <trkpt lat="46.785318" lon="15.825667">
        <ele>244.620621</ele>
        <time>2024-05-11T10:54:10.000Z</time>
      </trkpt>
      <trkpt lat="46.784837" lon="15.825783">
        <ele>244.53561</ele>
        <time>2024-05-11T10:54:15.000Z</time>
      </trkpt>
      <trkpt lat="46.784536" lon="15.825786">
        <ele>244.491845</ele>
        <time>2024-05-11T10:54:18.000Z</time>
      </trkpt>
      <trkpt lat="46.784234" lon="15.825718">
        <ele>244.446399</ele>
        <time>2024-05-11T10:54:21.000Z</time>
      </trkpt>
      <trkpt lat="46.783751" lon="15.825465">
        <ele>244.373749</ele>
        <time>2024-05-11T10:54:27.000Z</time>
      </trkpt>
      <trkpt lat="46.782511" lon="15.824885">
        <ele>243.953242</ele>
        <time>2024-05-11T10:54:41.000Z</time>
      </trkpt>
      <trkpt lat="46.782334" lon="15.824752">
        <ele>243.878953</ele>
        <time>2024-05-11T10:54:43.000Z</time>
      </trkpt>
      <trkpt lat="46.7821" lon="15.824531">
        <ele>243.779937</ele>
        <time>2024-05-11T10:54:46.000Z</time>
      </trkpt>
      <trkpt lat="46.781726" lon="15.823935">
        <ele>243.312261</ele>
        <time>2024-05-11T10:54:52.000Z</time>
      </trkpt>
      <trkpt lat="46.781576" lon="15.823784">
        <ele>243.083</ele>
        <time>2024-05-11T10:54:54.000Z</time>
      </trkpt>
      <trkpt lat="46.781404" lon="15.823648">
        <ele>242.826947</ele>
        <time>2024-05-11T10:54:56.000Z</time>
      </trkpt>
      <trkpt lat="46.781109" lon="15.82353">
        <ele>242.426237</ele>
        <time>2024-05-11T10:54:59.000Z</time>
      </trkpt>
      <trkpt lat="46.780693" lon="15.82348">
        <ele>241.908298</ele>
        <time>2024-05-11T10:55:04.000Z</time>
      </trkpt>
      <trkpt lat="46.780463" lon="15.823516">
        <ele>241.602097</ele>
        <time>2024-05-11T10:55:07.000Z</time>
      </trkpt>
      <trkpt lat="46.780145" lon="15.823624">
        <ele>241.230154</ele>
        <time>2024-05-11T10:55:11.000Z</time>
      </trkpt>
      <trkpt lat="46.779131" lon="15.824104">
        <ele>240.094563</ele>
        <time>2024-05-11T10:55:23.000Z</time>
      </trkpt>
      <trkpt lat="46.778916" lon="15.82418">
        <ele>239.86966</ele>
        <time>2024-05-11T10:55:25.000Z</time>
      </trkpt>
      <trkpt lat="46.77848" lon="15.824228">
        <ele>239.573026</ele>
        <time>2024-05-11T10:55:30.000Z</time>
      </trkpt>
      <trkpt lat="46.778503" lon="15.824156">
        <ele>239.627343</ele>
        <time>2024-05-11T10:55:31.000Z</time>
      </trkpt>
      <trkpt lat="46.778212" lon="15.824123">
        <ele>239.925287</ele>
        <time>2024-05-11T10:55:34.000Z</time>
      </trkpt>
      <trkpt lat="46.777521" lon="15.823912">
        <ele>240.679803</ele>
        <time>2024-05-11T10:55:42.000Z</time>
      </trkpt>
      <trkpt lat="46.777053" lon="15.823743">
        <ele>241.185653</ele>
        <time>2024-05-11T10:55:47.000Z</time>
      </trkpt>
      <trkpt lat="46.77651" lon="15.823522">
        <ele>241.410217</ele>
        <time>2024-05-11T10:55:53.000Z</time>
      </trkpt>
      <trkpt lat="46.776127" lon="15.823428">
        <ele>241.425035</ele>
        <time>2024-05-11T10:55:57.000Z</time>
      </trkpt>
      <trkpt lat="46.774667" lon="15.823302">
        <ele>241.228976</ele>
        <time>2024-05-11T10:56:13.000Z</time>
      </trkpt>
      <trkpt lat="46.774531" lon="15.823297">
        <ele>241.160012</ele>
        <time>2024-05-11T10:56:15.000Z</time>
      </trkpt>
      <trkpt lat="46.774229" lon="15.823355">
        <ele>240.984131</ele>
        <time>2024-05-11T10:56:18.000Z</time>
      </trkpt>
      <trkpt lat="46.773968" lon="15.823469">
        <ele>240.830753</ele>
        <time>2024-05-11T10:56:21.000Z</time>
      </trkpt>
      <trkpt lat="46.773227" lon="15.823778">
        <ele>240.430973</ele>
        <time>2024-05-11T10:56:30.000Z</time>
      </trkpt>
      <trkpt lat="46.773074" lon="15.823832">
        <ele>240.377639</ele>
        <time>2024-05-11T10:56:32.000Z</time>
      </trkpt>
      <trkpt lat="46.772645" lon="15.823999">
        <ele>240.232648</ele>
        <time>2024-05-11T10:56:37.000Z</time>
      </trkpt>
      <trkpt lat="46.771577" lon="15.824582">
        <ele>239.873466</ele>
        <time>2024-05-11T10:56:50.000Z</time>
      </trkpt>
      <trkpt lat="46.770864" lon="15.824861">
        <ele>240.007476</ele>
        <time>2024-05-11T10:56:58.000Z</time>
      </trkpt>
      <trkpt lat="46.770446" lon="15.82493">
        <ele>240.081945</ele>
        <time>2024-05-11T10:57:03.000Z</time>
      </trkpt>
      <trkpt lat="46.770136" lon="15.824909">
        <ele>240.140072</ele>
        <time>2024-05-11T10:57:06.000Z</time>
      </trkpt>
      <trkpt lat="46.769714" lon="15.824837">
        <ele>240.222319</ele>
        <time>2024-05-11T10:57:11.000Z</time>
      </trkpt>
      <trkpt lat="46.769539" lon="15.824803">
        <ele>240.262695</ele>
        <time>2024-05-11T10:57:13.000Z</time>
      </trkpt>
      <trkpt lat="46.768675" lon="15.825039">
        <ele>240.462635</ele>
        <time>2024-05-11T10:57:23.000Z</time>
      </trkpt>
      <trkpt lat="46.768397" lon="15.825106">
        <ele>240.526688</ele>
        <time>2024-05-11T10:57:26.000Z</time>
      </trkpt>
      <trkpt lat="46.766649" lon="15.825372">
        <ele>240.004817</ele>
        <time>2024-05-11T10:57:46.000Z</time>
      </trkpt>
      <trkpt lat="46.766247" lon="15.825583">
        <ele>239.830036</ele>
        <time>2024-05-11T10:57:51.000Z</time>
      </trkpt>
      <trkpt lat="46.765465" lon="15.826071">
        <ele>239.581563</ele>
        <time>2024-05-11T10:58:00.000Z</time>
      </trkpt>
      <trkpt lat="46.764763" lon="15.826532">
        <ele>239.355172</ele>
        <time>2024-05-11T10:58:09.000Z</time>
      </trkpt>
      <trkpt lat="46.764543" lon="15.826713">
        <ele>239.244122</ele>
        <time>2024-05-11T10:58:12.000Z</time>
      </trkpt>
      <trkpt lat="46.764147" lon="15.827066">
        <ele>239.011639</ele>
        <time>2024-05-11T10:58:17.000Z</time>
      </trkpt>
      <trkpt lat="46.76323" lon="15.828032">
        <ele>238.431564</ele>
        <time>2024-05-11T10:58:30.000Z</time>
      </trkpt>
      <trkpt lat="46.763031" lon="15.828198">
        <ele>238.36546</ele>
        <time>2024-05-11T10:58:33.000Z</time>
      </trkpt>
      <trkpt lat="46.762696" lon="15.828393">
        <ele>238.286775</ele>
        <time>2024-05-11T10:58:37.000Z</time>
      </trkpt>
      <trkpt lat="46.76238" lon="15.828524">
        <ele>238.215899</ele>
        <time>2024-05-11T10:58:41.000Z</time>
      </trkpt>
      <trkpt lat="46.762155" lon="15.828568">
        <ele>238.170469</ele>
        <time>2024-05-11T10:58:44.000Z</time>
      </trkpt>
      <trkpt lat="46.761676" lon="15.828599">
        <ele>238.065999</ele>
        <time>2024-05-11T10:58:49.000Z</time>
      </trkpt>
      <trkpt lat="46.760483" lon="15.828669">
        <ele>238.328868</ele>
        <time>2024-05-11T10:59:02.000Z</time>
      </trkpt>
      <trkpt lat="46.759953" lon="15.828761">
        <ele>238.503748</ele>
        <time>2024-05-11T10:59:08.000Z</time>
      </trkpt>
      <trkpt lat="46.759348" lon="15.828952">
        <ele>238.994523</ele>
        <time>2024-05-11T10:59:15.000Z</time>
      </trkpt>
      <trkpt lat="46.758821" lon="15.829086">
        <ele>239.660667</ele>
        <time>2024-05-11T10:59:21.000Z</time>
      </trkpt>
      <trkpt lat="46.75827" lon="15.829168">
        <ele>240.339426</ele>
        <time>2024-05-11T10:59:27.000Z</time>
      </trkpt>
      <trkpt lat="46.757962" lon="15.829188">
        <ele>240.733075</ele>
        <time>2024-05-11T10:59:30.000Z</time>
      </trkpt>
      <trkpt lat="46.757526" lon="15.829122">
        <ele>241.279833</ele>
        <time>2024-05-11T10:59:35.000Z</time>
      </trkpt>
      <trkpt lat="46.757258" lon="15.829087">
        <ele>241.609794</ele>
        <time>2024-05-11T10:59:38.000Z</time>
      </trkpt>
      <trkpt lat="46.756785" lon="15.828949">
        <ele>242.192249</ele>
        <time>2024-05-11T10:59:43.000Z</time>
      </trkpt>
      <trkpt lat="46.756552" lon="15.828859">
        <ele>242.505296</ele>
        <time>2024-05-11T10:59:46.000Z</time>
      </trkpt>
      <trkpt lat="46.756387" lon="15.828815">
        <ele>242.699933</ele>
        <time>2024-05-11T10:59:48.000Z</time>
      </trkpt>
      <trkpt lat="46.75625" lon="15.828786">
        <ele>242.89145</ele>
        <time>2024-05-11T10:59:50.000Z</time>
      </trkpt>
      <trkpt lat="46.756103" lon="15.828762">
        <ele>243.055354</ele>
        <time>2024-05-11T10:59:52.000Z</time>
      </trkpt>
      <trkpt lat="46.756015" lon="15.828768">
        <ele>243.072053</ele>
        <time>2024-05-11T10:59:53.000Z</time>
      </trkpt>
      <trkpt lat="46.755874" lon="15.828766">
        <ele>243.068316</ele>
        <time>2024-05-11T10:59:55.000Z</time>
      </trkpt>
      <trkpt lat="46.755753" lon="15.828789">
        <ele>243.065404</ele>
        <time>2024-05-11T10:59:56.000Z</time>
      </trkpt>
      <trkpt lat="46.7555" lon="15.828798">
        <ele>243.058592</ele>
        <time>2024-05-11T10:59:59.000Z</time>
      </trkpt>
      <trkpt lat="46.755404" lon="15.828821">
        <ele>243.056137</ele>
        <time>2024-05-11T11:00:00.000Z</time>
      </trkpt>
      <trkpt lat="46.755221" lon="15.82883">
        <ele>243.051736</ele>
        <time>2024-05-11T11:00:02.000Z</time>
      </trkpt>
      <trkpt lat="46.755063" lon="15.828846">
        <ele>243.047397</ele>
        <time>2024-05-11T11:00:04.000Z</time>
      </trkpt>
      <trkpt lat="46.754742" lon="15.82888">
        <ele>243.038831</ele>
        <time>2024-05-11T11:00:08.000Z</time>
      </trkpt>
      <trkpt lat="46.754399" lon="15.828917">
        <ele>243.030164</ele>
        <time>2024-05-11T11:00:12.000Z</time>
      </trkpt>
      <trkpt lat="46.754013" lon="15.828962">
        <ele>242.992846</ele>
        <time>2024-05-11T11:00:16.000Z</time>
      </trkpt>
      <trkpt lat="46.753717" lon="15.829035">
        <ele>242.953454</ele>
        <time>2024-05-11T11:00:19.000Z</time>
      </trkpt>
      <trkpt lat="46.753636" lon="15.829056">
        <ele>242.944107</ele>
        <time>2024-05-11T11:00:20.000Z</time>
      </trkpt>
      <trkpt lat="46.752853" lon="15.829455">
        <ele>242.842112</ele>
        <time>2024-05-11T11:00:29.000Z</time>
      </trkpt>
      <trkpt lat="46.752793" lon="15.829509">
        <ele>242.831937</ele>
        <time>2024-05-11T11:00:30.000Z</time>
      </trkpt>
      <trkpt lat="46.752538" lon="15.829644">
        <ele>242.810919</ele>
        <time>2024-05-11T11:00:33.000Z</time>
      </trkpt>
      <trkpt lat="46.752483" lon="15.829687">
        <ele>242.821658</ele>
        <time>2024-05-11T11:00:34.000Z</time>
      </trkpt>
      <trkpt lat="46.752449" lon="15.829706">
        <ele>242.831199</ele>
        <time>2024-05-11T11:00:34.000Z</time>
      </trkpt>
      <trkpt lat="46.752367" lon="15.829734">
        <ele>242.846242</ele>
        <time>2024-05-11T11:00:35.000Z</time>
      </trkpt>
      <trkpt lat="46.75229" lon="15.829714">
        <ele>242.859858</ele>
        <time>2024-05-11T11:00:36.000Z</time>
      </trkpt>
      <trkpt lat="46.752166" lon="15.82968">
        <ele>242.882859</ele>
        <time>2024-05-11T11:00:37.000Z</time>
      </trkpt>
      <trkpt lat="46.752087" lon="15.829585">
        <ele>242.899937</ele>
        <time>2024-05-11T11:00:38.000Z</time>
      </trkpt>
      <trkpt lat="46.751986" lon="15.829594">
        <ele>242.920004</ele>
        <time>2024-05-11T11:00:39.000Z</time>
      </trkpt>
      <trkpt lat="46.751901" lon="15.829494">
        <ele>242.939613</ele>
        <time>2024-05-11T11:00:40.000Z</time>
      </trkpt>
      <trkpt lat="46.751827" lon="15.829426">
        <ele>242.955227</ele>
        <time>2024-05-11T11:00:41.000Z</time>
      </trkpt>
      <trkpt lat="46.751643" lon="15.829052">
        <ele>243.013303</ele>
        <time>2024-05-11T11:00:45.000Z</time>
      </trkpt>
      <trkpt lat="46.751616" lon="15.828997">
        <ele>243.020853</ele>
        <time>2024-05-11T11:00:46.000Z</time>
      </trkpt>
      <trkpt lat="46.75148" lon="15.828741">
        <ele>243.06045</ele>
        <time>2024-05-11T11:00:48.000Z</time>
      </trkpt>
      <trkpt lat="46.75132" lon="15.828418">
        <ele>243.109149</ele>
        <time>2024-05-11T11:00:51.000Z</time>
      </trkpt>
      <trkpt lat="46.751273" lon="15.828323">
        <ele>243.123245</ele>
        <time>2024-05-11T11:00:52.000Z</time>
      </trkpt>
      <trkpt lat="46.751176" lon="15.828122">
        <ele>243.187499</ele>
        <time>2024-05-11T11:00:54.000Z</time>
      </trkpt>
      <trkpt lat="46.750988" lon="15.827796">
        <ele>243.310636</ele>
        <time>2024-05-11T11:00:57.000Z</time>
      </trkpt>
      <trkpt lat="46.750919" lon="15.827684">
        <ele>243.348769</ele>
        <time>2024-05-11T11:00:58.000Z</time>
      </trkpt>
      <trkpt lat="46.750846" lon="15.827551">
        <ele>243.399245</ele>
        <time>2024-05-11T11:00:59.000Z</time>
      </trkpt>
      <trkpt lat="46.750729" lon="15.827355">
        <ele>243.472833</ele>
        <time>2024-05-11T11:01:01.000Z</time>
      </trkpt>
      <trkpt lat="46.750527" lon="15.827014">
        <ele>243.603133</ele>
        <time>2024-05-11T11:01:04.000Z</time>
      </trkpt>
      <trkpt lat="46.750491" lon="15.826948">
        <ele>243.632131</ele>
        <time>2024-05-11T11:01:05.000Z</time>
      </trkpt>
      <trkpt lat="46.750397" lon="15.826798">
        <ele>243.688958</ele>
        <time>2024-05-11T11:01:07.000Z</time>
      </trkpt>
      <trkpt lat="46.750227" lon="15.826512">
        <ele>243.793287</ele>
        <time>2024-05-11T11:01:10.000Z</time>
      </trkpt>
      <trkpt lat="46.750208" lon="15.826471">
        <ele>243.809203</ele>
        <time>2024-05-11T11:01:10.000Z</time>
      </trkpt>
      <trkpt lat="46.750053" lon="15.826221">
        <ele>243.843952</ele>
        <time>2024-05-11T11:01:13.000Z</time>
      </trkpt>
      <trkpt lat="46.749633" lon="15.825642">
        <ele>243.508401</ele>
        <time>2024-05-11T11:01:19.000Z</time>
      </trkpt>
      <trkpt lat="46.749004" lon="15.824686">
        <ele>242.984929</ele>
        <time>2024-05-11T11:01:29.000Z</time>
      </trkpt>
      <trkpt lat="46.748859" lon="15.824437">
        <ele>242.855988</ele>
        <time>2024-05-11T11:01:31.000Z</time>
      </trkpt>
      <trkpt lat="46.74867" lon="15.824081">
        <ele>242.553043</ele>
        <time>2024-05-11T11:01:34.000Z</time>
      </trkpt>
      <trkpt lat="46.748694" lon="15.824045">
        <ele>242.514608</ele>
        <time>2024-05-11T11:01:34.000Z</time>
      </trkpt>
      <trkpt lat="46.748139" lon="15.822875">
        <ele>241.519652</ele>
        <time>2024-05-11T11:01:45.000Z</time>
      </trkpt>
      <trkpt lat="46.747938" lon="15.822504">
        <ele>241.197758</ele>
        <time>2024-05-11T11:01:49.000Z</time>
      </trkpt>
      <trkpt lat="46.747481" lon="15.821795">
        <ele>240.844133</ele>
        <time>2024-05-11T11:01:56.000Z</time>
      </trkpt>
      <trkpt lat="46.746896" lon="15.821024">
        <ele>240.578718</ele>
        <time>2024-05-11T11:02:05.000Z</time>
      </trkpt>
      <trkpt lat="46.74657" lon="15.820766">
        <ele>240.451788</ele>
        <time>2024-05-11T11:02:09.000Z</time>
      </trkpt>
      <trkpt lat="46.746374" lon="15.820654">
        <ele>240.409114</ele>
        <time>2024-05-11T11:02:11.000Z</time>
      </trkpt>
      <trkpt lat="46.745648" lon="15.820333">
        <ele>240.560714</ele>
        <time>2024-05-11T11:02:19.000Z</time>
      </trkpt>
      <trkpt lat="46.745491" lon="15.820227">
        <ele>240.597846</ele>
        <time>2024-05-11T11:02:21.000Z</time>
      </trkpt>
      <trkpt lat="46.745387" lon="15.820158">
        <ele>240.618143</ele>
        <time>2024-05-11T11:02:22.000Z</time>
      </trkpt>
      <trkpt lat="46.745321" lon="15.820083">
        <ele>240.63512</ele>
        <time>2024-05-11T11:02:23.000Z</time>
      </trkpt>
      <trkpt lat="46.745222" lon="15.819977">
        <ele>240.661079</ele>
        <time>2024-05-11T11:02:24.000Z</time>
      </trkpt>
      <trkpt lat="46.745002" lon="15.819648">
        <ele>240.724922</ele>
        <time>2024-05-11T11:02:28.000Z</time>
      </trkpt>
      <trkpt lat="46.744664" lon="15.819044">
        <ele>240.740143</ele>
        <time>2024-05-11T11:02:34.000Z</time>
      </trkpt>
      <trkpt lat="46.744569" lon="15.818884">
        <ele>240.733194</ele>
        <time>2024-05-11T11:02:36.000Z</time>
      </trkpt>
      <trkpt lat="46.744326" lon="15.81845">
        <ele>240.712381</ele>
        <time>2024-05-11T11:02:40.000Z</time>
      </trkpt>
      <trkpt lat="46.744227" lon="15.8183">
        <ele>240.705787</ele>
        <time>2024-05-11T11:02:42.000Z</time>
      </trkpt>
      <trkpt lat="46.743964" lon="15.817956">
        <ele>240.687442</ele>
        <time>2024-05-11T11:02:46.000Z</time>
      </trkpt>
      <trkpt lat="46.743912" lon="15.817923">
        <ele>240.683931</ele>
        <time>2024-05-11T11:02:47.000Z</time>
      </trkpt>
      <trkpt lat="46.743474" lon="15.817525">
        <ele>240.466783</ele>
        <time>2024-05-11T11:02:53.000Z</time>
      </trkpt>
      <trkpt lat="46.743186" lon="15.817172">
        <ele>240.027743</ele>
        <time>2024-05-11T11:02:57.000Z</time>
      </trkpt>
      <trkpt lat="46.743119" lon="15.817082">
        <ele>239.916588</ele>
        <time>2024-05-11T11:02:58.000Z</time>
      </trkpt>
      <trkpt lat="46.743077" lon="15.817122">
        <ele>239.865327</ele>
        <time>2024-05-11T11:02:59.000Z</time>
      </trkpt>
      <trkpt lat="46.74281" lon="15.816767">
        <ele>239.430032</ele>
        <time>2024-05-11T11:03:03.000Z</time>
      </trkpt>
      <trkpt lat="46.742484" lon="15.816309">
        <ele>238.901151</ele>
        <time>2024-05-11T11:03:08.000Z</time>
      </trkpt>
      <trkpt lat="46.742038" lon="15.815817">
        <ele>237.958757</ele>
        <time>2024-05-11T11:03:14.000Z</time>
      </trkpt>
      <trkpt lat="46.74199" lon="15.815758">
        <ele>237.794369</ele>
        <time>2024-05-11T11:03:15.000Z</time>
      </trkpt>
      <trkpt lat="46.741653" lon="15.815509">
        <ele>236.937615</ele>
        <time>2024-05-11T11:03:19.000Z</time>
      </trkpt>
      <trkpt lat="46.741398" lon="15.815299">
        <ele>236.245485</ele>
        <time>2024-05-11T11:03:22.000Z</time>
      </trkpt>
      <trkpt lat="46.740949" lon="15.814964">
        <ele>235.093642</ele>
        <time>2024-05-11T11:03:28.000Z</time>
      </trkpt>
      <trkpt lat="46.740605" lon="15.814574">
        <ele>234.227948</ele>
        <time>2024-05-11T11:03:33.000Z</time>
      </trkpt>
      <trkpt lat="46.740274" lon="15.81415">
        <ele>233.68436</ele>
        <time>2024-05-11T11:03:38.000Z</time>
      </trkpt>
      <trkpt lat="46.739979" lon="15.813663">
        <ele>233.137114</ele>
        <time>2024-05-11T11:03:43.000Z</time>
      </trkpt>
      <trkpt lat="46.739477" lon="15.812805">
        <ele>232.175008</ele>
        <time>2024-05-11T11:03:52.000Z</time>
      </trkpt>
      <trkpt lat="46.739143" lon="15.812404">
        <ele>232.050113</ele>
        <time>2024-05-11T11:03:57.000Z</time>
      </trkpt>
      <trkpt lat="46.738861" lon="15.812122">
        <ele>231.96302</ele>
        <time>2024-05-11T11:04:01.000Z</time>
      </trkpt>
      <trkpt lat="46.738831" lon="15.8121">
        <ele>231.955566</ele>
        <time>2024-05-11T11:04:01.000Z</time>
      </trkpt>
      <trkpt lat="46.738759" lon="15.811974">
        <ele>231.924897</ele>
        <time>2024-05-11T11:04:02.000Z</time>
      </trkpt>
      <trkpt lat="46.73848" lon="15.811662">
        <ele>231.835459</ele>
        <time>2024-05-11T11:04:06.000Z</time>
      </trkpt>
      <trkpt lat="46.738095" lon="15.811106">
        <ele>231.69537</ele>
        <time>2024-05-11T11:04:12.000Z</time>
      </trkpt>
      <trkpt lat="46.737264" lon="15.80954">
        <ele>231.481402</ele>
        <time>2024-05-11T11:04:27.000Z</time>
      </trkpt>
      <trkpt lat="46.736435" lon="15.808218">
        <ele>231.399717</ele>
        <time>2024-05-11T11:04:41.000Z</time>
      </trkpt>
      <trkpt lat="46.736286" lon="15.80789">
        <ele>231.395676</ele>
        <time>2024-05-11T11:04:44.000Z</time>
      </trkpt>
      <trkpt lat="46.736233" lon="15.807743">
        <ele>231.393864</ele>
        <time>2024-05-11T11:04:45.000Z</time>
      </trkpt>
      <trkpt lat="46.736051" lon="15.80701">
        <ele>231.385962</ele>
        <time>2024-05-11T11:04:51.000Z</time>
      </trkpt>
      <trkpt lat="46.735877" lon="15.806036">
        <ele>231.460387</ele>
        <time>2024-05-11T11:04:59.000Z</time>
      </trkpt>
      <trkpt lat="46.735787" lon="15.805707">
        <ele>231.489254</ele>
        <time>2024-05-11T11:05:02.000Z</time>
      </trkpt>
      <trkpt lat="46.735618" lon="15.805305">
        <ele>231.530212</ele>
        <time>2024-05-11T11:05:06.000Z</time>
      </trkpt>
      <trkpt lat="46.735351" lon="15.80492">
        <ele>231.576668</ele>
        <time>2024-05-11T11:05:10.000Z</time>
      </trkpt>
      <trkpt lat="46.734708" lon="15.80432">
        <ele>231.587327</ele>
        <time>2024-05-11T11:05:18.000Z</time>
      </trkpt>
      <trkpt lat="46.734314" lon="15.804099">
        <ele>231.567099</ele>
        <time>2024-05-11T11:05:23.000Z</time>
      </trkpt>
      <trkpt lat="46.733848" lon="15.803924">
        <ele>231.544839</ele>
        <time>2024-05-11T11:05:28.000Z</time>
      </trkpt>
      <trkpt lat="46.732298" lon="15.80348">
        <ele>231.227755</ele>
        <time>2024-05-11T11:05:46.000Z</time>
      </trkpt>
      <trkpt lat="46.731821" lon="15.803221">
        <ele>231.098711</ele>
        <time>2024-05-11T11:05:52.000Z</time>
      </trkpt>
      <trkpt lat="46.730996" lon="15.80265">
        <ele>230.641496</ele>
        <time>2024-05-11T11:06:02.000Z</time>
      </trkpt>
      <trkpt lat="46.730575" lon="15.802432">
        <ele>230.40474</ele>
        <time>2024-05-11T11:06:07.000Z</time>
      </trkpt>
      <trkpt lat="46.729848" lon="15.802157">
        <ele>230.118121</ele>
        <time>2024-05-11T11:06:15.000Z</time>
      </trkpt>
      <trkpt lat="46.729381" lon="15.801935">
        <ele>230.109635</ele>
        <time>2024-05-11T11:06:20.000Z</time>
      </trkpt>
      <trkpt lat="46.72909" lon="15.801712">
        <ele>230.10383</ele>
        <time>2024-05-11T11:06:24.000Z</time>
      </trkpt>
      <trkpt lat="46.728948" lon="15.801539">
        <ele>230.100376</ele>
        <time>2024-05-11T11:06:26.000Z</time>
      </trkpt>
      <trkpt lat="46.728484" lon="15.800944">
        <ele>230.115011</ele>
        <time>2024-05-11T11:06:33.000Z</time>
      </trkpt>
      <trkpt lat="46.728128" lon="15.800399">
        <ele>230.507896</ele>
        <time>2024-05-11T11:06:39.000Z</time>
      </trkpt>
      <trkpt lat="46.727832" lon="15.800017">
        <ele>230.81332</ele>
        <time>2024-05-11T11:06:43.000Z</time>
      </trkpt>
      <trkpt lat="46.727679" lon="15.79985">
        <ele>230.968894</ele>
        <time>2024-05-11T11:06:45.000Z</time>
      </trkpt>
      <trkpt lat="46.727636" lon="15.799816">
        <ele>231.009184</ele>
        <time>2024-05-11T11:06:46.000Z</time>
      </trkpt>
      <trkpt lat="46.727526" lon="15.799725">
        <ele>231.108735</ele>
        <time>2024-05-11T11:06:47.000Z</time>
      </trkpt>
      <trkpt lat="46.727159" lon="15.799511">
        <ele>231.404721</ele>
        <time>2024-05-11T11:06:51.000Z</time>
      </trkpt>
      <trkpt lat="46.726923" lon="15.799422">
        <ele>231.504765</ele>
        <time>2024-05-11T11:06:54.000Z</time>
      </trkpt>
      <trkpt lat="46.726842" lon="15.799389">
        <ele>231.518082</ele>
        <time>2024-05-11T11:06:55.000Z</time>
      </trkpt>
      <trkpt lat="46.726676" lon="15.79937">
        <ele>231.544439</ele>
        <time>2024-05-11T11:06:57.000Z</time>
      </trkpt>
      <trkpt lat="46.726247" lon="15.799356">
        <ele>231.616279</ele>
        <time>2024-05-11T11:07:02.000Z</time>
      </trkpt>
      <trkpt lat="46.725751" lon="15.799389">
        <ele>231.699755</ele>
        <time>2024-05-11T11:07:08.000Z</time>
      </trkpt>
      <trkpt lat="46.725419" lon="15.799628">
        <ele>231.762345</ele>
        <time>2024-05-11T11:07:12.000Z</time>
      </trkpt>
      <trkpt lat="46.725389" lon="15.799563">
        <ele>231.772119</ele>
        <time>2024-05-11T11:07:13.000Z</time>
      </trkpt>
      <trkpt lat="46.725241" lon="15.799277">
        <ele>231.735824</ele>
        <time>2024-05-11T11:07:16.000Z</time>
      </trkpt>
      <trkpt lat="46.725216" lon="15.799244">
        <ele>231.726755</ele>
        <time>2024-05-11T11:07:16.000Z</time>
      </trkpt>
      <trkpt lat="46.725036" lon="15.798924">
        <ele>231.662177</ele>
        <time>2024-05-11T11:07:19.000Z</time>
      </trkpt>
      <trkpt lat="46.724801" lon="15.798639">
        <ele>231.593269</ele>
        <time>2024-05-11T11:07:22.000Z</time>
      </trkpt>
      <trkpt lat="46.724627" lon="15.798423">
        <ele>231.541695</ele>
        <time>2024-05-11T11:07:25.000Z</time>
      </trkpt>
      <trkpt lat="46.724546" lon="15.79834">
        <ele>231.517249</ele>
        <time>2024-05-11T11:07:26.000Z</time>
      </trkpt>
      <trkpt lat="46.724514" lon="15.798278">
        <ele>231.503269</ele>
        <time>2024-05-11T11:07:27.000Z</time>
      </trkpt>
      <trkpt lat="46.72443" lon="15.798175">
        <ele>231.478641</ele>
        <time>2024-05-11T11:07:28.000Z</time>
      </trkpt>
      <trkpt lat="46.724297" lon="15.798049">
        <ele>231.44421</ele>
        <time>2024-05-11T11:07:30.000Z</time>
      </trkpt>
      <trkpt lat="46.72406" lon="15.797779">
        <ele>231.37482</ele>
        <time>2024-05-11T11:07:33.000Z</time>
      </trkpt>
      <trkpt lat="46.723885" lon="15.797562">
        <ele>231.325722</ele>
        <time>2024-05-11T11:07:36.000Z</time>
      </trkpt>
      <trkpt lat="46.72349" lon="15.797111">
        <ele>231.222667</ele>
        <time>2024-05-11T11:07:42.000Z</time>
      </trkpt>
      <trkpt lat="46.723136" lon="15.796697">
        <ele>231.128921</ele>
        <time>2024-05-11T11:07:47.000Z</time>
      </trkpt>
      <trkpt lat="46.722984" lon="15.796548">
        <ele>231.090608</ele>
        <time>2024-05-11T11:07:49.000Z</time>
      </trkpt>
      <trkpt lat="46.722843" lon="15.796451">
        <ele>231.061074</ele>
        <time>2024-05-11T11:07:51.000Z</time>
      </trkpt>
      <trkpt lat="46.722577" lon="15.796332">
        <ele>231.001639</ele>
        <time>2024-05-11T11:07:54.000Z</time>
      </trkpt>
      <trkpt lat="46.721966" lon="15.796183">
        <ele>230.952991</ele>
        <time>2024-05-11T11:08:01.000Z</time>
      </trkpt>
      <trkpt lat="46.721779" lon="15.796086">
        <ele>230.938905</ele>
        <time>2024-05-11T11:08:03.000Z</time>
      </trkpt>
      <trkpt lat="46.721173" lon="15.79545">
        <ele>230.884792</ele>
        <time>2024-05-11T11:08:11.000Z</time>
      </trkpt>
      <trkpt lat="46.721028" lon="15.795374">
        <ele>230.873392</ele>
        <time>2024-05-11T11:08:13.000Z</time>
      </trkpt>
      <trkpt lat="46.720881" lon="15.795286">
        <ele>230.863531</ele>
        <time>2024-05-11T11:08:15.000Z</time>
      </trkpt>
      <trkpt lat="46.720567" lon="15.795166">
        <ele>230.856165</ele>
        <time>2024-05-11T11:08:19.000Z</time>
      </trkpt>
      <trkpt lat="46.720108" lon="15.795105">
        <ele>230.845477</ele>
        <time>2024-05-11T11:08:24.000Z</time>
      </trkpt>
      <trkpt lat="46.719544" lon="15.795116">
        <ele>230.832355</ele>
        <time>2024-05-11T11:08:30.000Z</time>
      </trkpt>
      <trkpt lat="46.719263" lon="15.795126">
        <ele>230.825741</ele>
        <time>2024-05-11T11:08:33.000Z</time>
      </trkpt>
      <trkpt lat="46.719182" lon="15.795128">
        <ele>230.823912</ele>
        <time>2024-05-11T11:08:34.000Z</time>
      </trkpt>
      <trkpt lat="46.718834" lon="15.795143">
        <ele>230.900569</ele>
        <time>2024-05-11T11:08:38.000Z</time>
      </trkpt>
      <trkpt lat="46.718522" lon="15.795101">
        <ele>230.984015</ele>
        <time>2024-05-11T11:08:41.000Z</time>
      </trkpt>
      <trkpt lat="46.718269" lon="15.795025">
        <ele>231.052823</ele>
        <time>2024-05-11T11:08:44.000Z</time>
      </trkpt>
      <trkpt lat="46.717945" lon="15.794871">
        <ele>231.140262</ele>
        <time>2024-05-11T11:08:48.000Z</time>
      </trkpt>
      <trkpt lat="46.717875" lon="15.794827">
        <ele>231.158628</ele>
        <time>2024-05-11T11:08:49.000Z</time>
      </trkpt>
      <trkpt lat="46.71704" lon="15.794455">
        <ele>231.329859</ele>
        <time>2024-05-11T11:08:59.000Z</time>
      </trkpt>
      <trkpt lat="46.716987" lon="15.794428">
        <ele>231.336517</ele>
        <time>2024-05-11T11:09:00.000Z</time>
      </trkpt>
      <trkpt lat="46.716936" lon="15.794421">
        <ele>231.340705</ele>
        <time>2024-05-11T11:09:01.000Z</time>
      </trkpt>
      <trkpt lat="46.716573" lon="15.794309">
        <ele>231.381071</ele>
        <time>2024-05-11T11:09:05.000Z</time>
      </trkpt>
      <trkpt lat="46.71636" lon="15.794249">
        <ele>231.40378</ele>
        <time>2024-05-11T11:09:07.000Z</time>
      </trkpt>
      <trkpt lat="46.716349" lon="15.794418">
        <ele>231.416323</ele>
        <time>2024-05-11T11:09:08.000Z</time>
      </trkpt>
      <trkpt lat="46.716398" lon="15.794703">
        <ele>231.436818</ele>
        <time>2024-05-11T11:09:10.000Z</time>
      </trkpt>
      <trkpt lat="46.71642" lon="15.794777">
        <ele>231.442237</ele>
        <time>2024-05-11T11:09:11.000Z</time>
      </trkpt>
      <trkpt lat="46.716395" lon="15.795024">
        <ele>231.460372</ele>
        <time>2024-05-11T11:09:13.000Z</time>
      </trkpt>
      <trkpt lat="46.716386" lon="15.795115">
        <ele>231.467043</ele>
        <time>2024-05-11T11:09:14.000Z</time>
      </trkpt>
      <trkpt lat="46.716364" lon="15.795346">
        <ele>231.47462</ele>
        <time>2024-05-11T11:09:16.000Z</time>
      </trkpt>
      <trkpt lat="46.716319" lon="15.795708">
        <ele>231.428387</ele>
        <time>2024-05-11T11:09:19.000Z</time>
      </trkpt>
      <trkpt lat="46.716289" lon="15.795891">
        <ele>231.403191</ele>
        <time>2024-05-11T11:09:20.000Z</time>
      </trkpt>
      <trkpt lat="46.716271" lon="15.795967">
        <ele>231.392344</ele>
        <time>2024-05-11T11:09:21.000Z</time>
      </trkpt>
      <trkpt lat="46.716486" lon="15.796335">
        <ele>231.328753</ele>
        <time>2024-05-11T11:09:25.000Z</time>
      </trkpt>
      <trkpt lat="46.716688" lon="15.796739">
        <ele>231.26569</ele>
        <time>2024-05-11T11:09:29.000Z</time>
      </trkpt>
      <trkpt lat="46.717102" lon="15.797652">
        <ele>231.134850087</ele>
        <time>2024-05-11T11:09:37.000Z</time>
      </trkpt>
      <trkpt lat="46.71731" lon="15.798109">
        <ele>231.069284273</ele>
        <time>2024-05-11T11:09:41.000Z</time>
      </trkpt>
      <trkpt lat="46.717638" lon="15.798766">
        <ele>230.97213999</ele>
        <time>2024-05-11T11:09:47.000Z</time>
      </trkpt>
    </trkseg>
  </trk>
</gpx>

<!--
Performance optimized by W3 Total Cache. Learn more: https://www.boldgrid.com/w3-total-cache/?utm_source=w3tc&utm_medium=footer_comment&utm_campaign=free_plugin

Page Caching using Disk: Enhanced{w3tc_pagecache_reject_reason} 

Served from: www.aquabike.world @ 2026-05-10 20:20:08 by W3 Total Cache
-->